Observation data for New Home on 01/19/2019      Previous  Date  Next       Current Mesonet Observations  Soil Data  Daily Summary Page  Observations in Plain Language
KNH1 190600Z 35025G31KT 02/M01 A3007 RMK A01 T00211006  RH  083%=      5-min Rain = 0
KNH1 190601Z 35023G30KT 02/M01 A3007 RMK A01 T00201005  RH  083%=      5-min Rain = 0
KNH1 190602Z 35022KT 02/M01 A3007 RMK A01 T00191005  RH  084%=      5-min Rain = 0
KNH1 190603Z 35023KT 02/M00 A3007 RMK A01 T00191004  RH  085%=      5-min Rain = 0
KNH1 190604Z 35022G27KT 02/M00 A3007 RMK A01 T00191004  RH  085%=      5-min Rain = 0
KNH1 190605Z 35021G28KT 02/M00 A3007 RMK A01 T00181003  RH  085%=      5-min Rain = 0
KNH1 190606Z 35023G28KT 02/M00 A3007 RMK A01 T00181003  RH  086%=      5-min Rain = 0
KNH1 190607Z 36022G28KT 02/M00 A3008 RMK A01 T00181003  RH  086%=      5-min Rain = 0
KNH1 190608Z 35025G30KT 02/M00 A3007 RMK A01 T00181003  RH  086%=      5-min Rain = 0
KNH1 190609Z 35022KT 02/M00 A3008 RMK A01 T00181004  RH  086%=      5-min Rain = 0
KNH1 190610Z 35020KT 02/M00 A3008 RMK A01 T00171003  RH  087%=      5-min Rain = 0
KNH1 190611Z 35023KT 02/M00 A3008 RMK A01 T00171002  RH  088%=      5-min Rain = 0
KNH1 190612Z 35022KT 02/M00 A3008 RMK A01 T00161002  RH  088%=      5-min Rain = 0
KNH1 190613Z 35024KT 02/M00 A3008 RMK A01 T00161001  RH  088%=      5-min Rain = 0
KNH1 190614Z 35026KT 02/M00 A3008 RMK A01 T00161001  RH  089%=      5-min Rain = 0
KNH1 190615Z 35022G27KT 02/M00 A3008 RMK A01 T00151001  RH  089%=      5-min Rain = 0
KNH1 190616Z 35022KT 02/M00 A3008 RMK A01 T00151002  RH  089%=      5-min Rain = 0
KNH1 190617Z 35018G24KT 01/M00 A3008 RMK A01 T00141001  RH  089%=      5-min Rain = 0
KNH1 190618Z 35020G25KT 01/00 A3008 RMK A01 T001400-0  RH  090%=      5-min Rain = 0
KNH1 190619Z 35021G26KT 01/00 A3008 RMK A01 T001400-0  RH  090%=      5-min Rain = 0
KNH1 190620Z 00022KT 01/M00 A3008 RMK A01 T00131001  RH  090%=      5-min Rain = 0
KNH1 190621Z 36018G23KT 01/M00 A3008 RMK A01 T00131001  RH  090%=      5-min Rain = 0
KNH1 190622Z 35017G23KT 01/M00 A3008 RMK A01 T00131001  RH  091%=      5-min Rain = 0
KNH1 190623Z 00018G24KT 01/M00 A3008 RMK A01 T00131001  RH  091%=      5-min Rain = 0
KNH1 190624Z 36014KT 01/00 A3008 RMK A01 T001300-0  RH  091%=      5-min Rain = 0
KNH1 190625Z 35014G19KT 01/00 A3008 RMK A01 T00130001  RH  091%=      5-min Rain = 0
KNH1 190626Z 00014KT 01/00 A3008 RMK A01 T00130001  RH  092%=      5-min Rain = 0
KNH1 190627Z 36018G24KT 01/00 A3008 RMK A01 T00130001  RH  092%=      5-min Rain = 0
KNH1 190628Z 00018G24KT 01/00 A3008 RMK A01 T001300-0  RH  091%=      5-min Rain = 0
KNH1 190629Z 35018G24KT 01/M00 A3008 RMK A01 T00131001  RH  090%=      5-min Rain = 0
KNH1 190630Z 36019KT 01/M00 A3008 RMK A01 T00141001  RH  090%=      5-min Rain = 0
KNH1 190631Z 35014KT 01/M00 A3008 RMK A01 T00131001  RH  090%=      5-min Rain = 0
KNH1 190632Z 00014G19KT 01/M00 A3008 RMK A01 T00131001  RH  090%=      5-min Rain = 0
KNH1 190633Z 35016KT 01/M00 A3008 RMK A01 T00131001  RH  090%=      5-min Rain = 0
KNH1 190634Z 01014KT 01/M00 A3008 RMK A01 T00131001  RH  091%=      5-min Rain = 0
KNH1 190635Z 35017KT 01/M00 A3008 RMK A01 T00131001  RH  091%=      5-min Rain = 0
KNH1 190636Z 00016KT 01/M00 A3008 RMK A01 T00131001  RH  090%=      5-min Rain = 0
KNH1 190637Z 36017KT 01/M00 A3008 RMK A01 T00131001  RH  090%=      5-min Rain = 0
KNH1 190638Z 36016KT 01/M00 A3008 RMK A01 T00131001  RH  090%=      5-min Rain = 0
KNH1 190639Z 36016KT 01/M00 A3008 RMK A01 T00131001  RH  090%=      5-min Rain = 0
KNH1 190640Z 35015G20KT 01/M00 A3008 RMK A01 T00121002  RH  090%=      5-min Rain = 0
KNH1 190641Z 36015KT 01/M00 A3008 RMK A01 T00121002  RH  090%=      5-min Rain = 0
KNH1 190642Z 00012KT 01/M00 A3008 RMK A01 T00121002  RH  091%=      5-min Rain = 0
KNH1 190643Z 35013KT 01/M00 A3009 RMK A01 T00111002  RH  091%=      5-min Rain = 0
KNH1 190644Z 34014KT 01/M00 A3008 RMK A01 T00111002  RH  091%=      5-min Rain = 0
KNH1 190645Z 35019KT 01/M00 A3008 RMK A01 T00111002  RH  091%=      5-min Rain = 0
KNH1 190646Z 35019KT 01/M00 A3008 RMK A01 T00111003  RH  090%=      5-min Rain = 0
KNH1 190647Z 36015KT 01/M00 A3008 RMK A01 T00111004  RH  090%=      5-min Rain = 0
KNH1 190648Z 35014KT 01/M00 A3008 RMK A01 T00111004  RH  090%=      5-min Rain = 0
KNH1 190649Z 34013KT 01/M00 A3009 RMK A01 T00111004  RH  090%=      5-min Rain = 0
KNH1 190650Z 35014G20KT 01/M00 A3009 RMK A01 T00111004  RH  090%=      5-min Rain = 0
KNH1 190651Z 35015G20KT 01/M00 A3009 RMK A01 T00111004  RH  090%=      5-min Rain = 0
KNH1 190652Z 35018KT 01/M01 A3009 RMK A01 T00111005  RH  090%=      5-min Rain = 0
KNH1 190653Z 35017KT 01/M01 A3009 RMK A01 T00111005  RH  089%=      5-min Rain = 0
KNH1 190654Z 35018KT 01/M01 A3009 RMK A01 T00111006  RH  089%=      5-min Rain = 0
KNH1 190655Z 35018KT 01/M01 A3009 RMK A01 T00111006  RH  089%=      5-min Rain = 0
KNH1 190656Z 35016G23KT 01/M01 A3009 RMK A01 T00111007  RH  088%=      5-min Rain = 0
KNH1 190657Z 34017KT 01/M01 A3009 RMK A01 T00111007  RH  088%=      5-min Rain = 0
KNH1 190658Z 34015G21KT 01/M01 A3009 RMK A01 T00111007  RH  088%=      5-min Rain = 0
KNH1 190659Z 35017KT 01/M01 A3009 RMK A01 T00111008  RH  088%=      5-min Rain = 0
KNH1 190700Z 35018KT 01/M01 A3009 RMK A01 T00111008  RH  087%=      5-min Rain = 0
KNH1 190701Z 34017KT 01/M01 A3009 RMK A01 T00111009  RH  087%=      5-min Rain = 0
KNH1 190702Z 34018KT 01/M01 A3009 RMK A01 T00111009  RH  087%=      5-min Rain = 0
KNH1 190703Z 35014KT 01/M01 A3009 RMK A01 T00111010  RH  086%=      5-min Rain = 0
KNH1 190704Z 34015G20KT 01/M01 A3009 RMK A01 T00111009  RH  086%=      5-min Rain = 0
KNH1 190705Z 34014KT 01/M01 A3009 RMK A01 T00111009  RH  086%=      5-min Rain = 0
KNH1 190706Z 34013KT 01/M01 A3009 RMK A01 T00111009  RH  086%=      5-min Rain = 0
KNH1 190707Z 35014KT 01/M01 A3009 RMK A01 T00111009  RH  086%=      5-min Rain = 0
KNH1 190708Z 34012KT 01/M01 A301 RMK A01 T00111009  RH  087%=      5-min Rain = 0
KNH1 190709Z 34012KT 01/M01 A301 RMK A01 T00111008  RH  087%=      5-min Rain = 0
KNH1 190710Z 34013KT 01/M01 A301 RMK A01 T00111008  RH  087%=      5-min Rain = 0
KNH1 190711Z 34012KT 01/M01 A301 RMK A01 T00111008  RH  087%=      5-min Rain = 0
KNH1 190712Z 34011KT 01/M01 A301 RMK A01 T00111008  RH  087%=      5-min Rain = 0
KNH1 190713Z 34012KT 01/M01 A301 RMK A01 T00111007  RH  087%=      5-min Rain = 0
KNH1 190714Z 34013KT 01/M01 A301 RMK A01 T00121007  RH  087%=      5-min Rain = 0
KNH1 190715Z 34013KT 01/M01 A301 RMK A01 T00121007  RH  087%=      5-min Rain = 0
KNH1 190716Z 34012KT 01/M01 A301 RMK A01 T00131007  RH  087%=      5-min Rain = 0
KNH1 190717Z 35012KT 01/M01 A301 RMK A01 T00131006  RH  087%=      5-min Rain = 0
KNH1 190718Z 35015KT 01/M01 A301 RMK A01 T00131006  RH  087%=      5-min Rain = 0
KNH1 190719Z 35015KT 01/M01 A301 RMK A01 T00141006  RH  087%=      5-min Rain = 0
KNH1 190720Z 34014KT 01/M01 A301 RMK A01 T00141007  RH  086%=      5-min Rain = 0
KNH1 190721Z 35011G16KT 01/M01 A301 RMK A01 T00141006  RH  086%=      5-min Rain = 0
KNH1 190722Z 35013KT 01/M01 A301 RMK A01 T00141006  RH  087%=      5-min Rain = 0
KNH1 190723Z 35013KT 01/M01 A301 RMK A01 T00141006  RH  087%=      5-min Rain = 0
KNH1 190724Z 34013G20KT 01/M01 A301 RMK A01 T00141005  RH  087%=      5-min Rain = 0
KNH1 190725Z 35012KT 01/M01 A301 RMK A01 T00141006  RH  086%=      5-min Rain = 0
KNH1 190726Z 35011KT 02/M01 A301 RMK A01 T00151006  RH  086%=      5-min Rain = 0
KNH1 190727Z 35013G18KT 02/M01 A301 RMK A01 T00151006  RH  086%=      5-min Rain = 0
KNH1 190728Z 34016KT 02/M01 A301 RMK A01 T00151006  RH  086%=      5-min Rain = 0
KNH1 190729Z 34016KT 02/M01 A301 RMK A01 T00151007  RH  085%=      5-min Rain = 0
KNH1 190730Z 35016KT 02/M01 A301 RMK A01 T00151008  RH  085%=      5-min Rain = 0
KNH1 190731Z 34016KT 02/M01 A301 RMK A01 T00151008  RH  085%=      5-min Rain = 0
KNH1 190732Z 34019KT 02/M01 A301 RMK A01 T00161008  RH  084%=      5-min Rain = 0
KNH1 190733Z 35016G21KT 02/M01 A301 RMK A01 T00161009  RH  084%=      5-min Rain = 0
KNH1 190734Z 34016G21KT 02/M01 A301 RMK A01 T00161009  RH  084%=      5-min Rain = 0
KNH1 190735Z 35015G21KT 02/M01 A3011 RMK A01 T00161009  RH  084%=      5-min Rain = 0
KNH1 190736Z 35020G25KT 02/M01 A3011 RMK A01 T00161010  RH  083%=      5-min Rain = 0
KNH1 190737Z 34018G23KT 02/M01 A3011 RMK A01 T00161010  RH  083%=      5-min Rain = 0
KNH1 190738Z 35019G24KT 02/M01 A3011 RMK A01 T00161012  RH  082%=      5-min Rain = 0
KNH1 190739Z 35020KT 02/M01 A3011 RMK A01 T00171013  RH  081%=      5-min Rain = 0
KNH1 190740Z 35020KT 02/M01 A3011 RMK A01 T00171014  RH  080%=      5-min Rain = 0
KNH1 190741Z 35019G27KT 02/M01 A3011 RMK A01 T00171014  RH  080%=      5-min Rain = 0
KNH1 190742Z 36022G29KT 02/M02 A3011 RMK A01 T00171015  RH  079%=      5-min Rain = 0
KNH1 190743Z 34021KT 02/M02 A3011 RMK A01 T00171017  RH  078%=      5-min Rain = 0
KNH1 190744Z 35020KT 02/M02 A3011 RMK A01 T00171017  RH  078%=      5-min Rain = 0
KNH1 190745Z 35014G22KT 02/M02 A3011 RMK A01 T00171017  RH  078%=      5-min Rain = 0
KNH1 190746Z 35018G24KT 02/M02 A3011 RMK A01 T00171016  RH  078%=      5-min Rain = 0
KNH1 190747Z 35018KT 02/M02 A3012 RMK A01 T00171017  RH  078%=      5-min Rain = 0
KNH1 190748Z 35020G25KT 02/M02 A3011 RMK A01 T00161018  RH  078%=      5-min Rain = 0
KNH1 190749Z 35018KT 02/M02 A3012 RMK A01 T00161019  RH  078%=      5-min Rain = 0
KNH1 190750Z 34018G23KT 02/M02 A3012 RMK A01 T00151019  RH  078%=      5-min Rain = 0
KNH1 190751Z 35020KT 02/M02 A3011 RMK A01 T00151020  RH  078%=      5-min Rain = 0
KNH1 190752Z 35016G21KT 01/M02 A3012 RMK A01 T00141021  RH  077%=      5-min Rain = 0
KNH1 190753Z 35018G23KT 01/M02 A3011 RMK A01 T00141021  RH  078%=      5-min Rain = 0
KNH1 190754Z 35016KT 01/M02 A3012 RMK A01 T00141021  RH  078%=      5-min Rain = 0
KNH1 190755Z 35016KT 01/M02 A3012 RMK A01 T00131021  RH  078%=      5-min Rain = 0
KNH1 190756Z 35018KT 01/M02 A3012 RMK A01 T00121022  RH  078%=      5-min Rain = 0
KNH1 190757Z 35016KT 01/M02 A3012 RMK A01 T00131022  RH  078%=      5-min Rain = 0
KNH1 190758Z 35018KT 01/M02 A3012 RMK A01 T00121022  RH  078%=      5-min Rain = 0
KNH1 190759Z 35018KT 01/M02 A3012 RMK A01 T00121022  RH  078%=      5-min Rain = 0
KNH1 190800Z 35017G22KT 01/M02 A3012 RMK A01 T00121022  RH  078%=      5-min Rain = 0
KNH1 190801Z 35018KT 01/M02 A3012 RMK A01 T00121023  RH  078%=      5-min Rain = 0
KNH1 190802Z 34016KT 01/M02 A3012 RMK A01 T00121022  RH  078%=      5-min Rain = 0
KNH1 190803Z 35015G20KT 01/M02 A3012 RMK A01 T00111023  RH  078%=      5-min Rain = 0
KNH1 190804Z 35018KT 01/M02 A3012 RMK A01 T00111023  RH  078%=      5-min Rain = 0
KNH1 190805Z 35015KT 01/M02 A3012 RMK A01 T00111022  RH  078%=      5-min Rain = 0
KNH1 190806Z 35018KT 01/M02 A3012 RMK A01 T00101023  RH  079%=      5-min Rain = 0
KNH1 190807Z 35015KT 01/M02 A3012 RMK A01 T00101023  RH  079%=      5-min Rain = 0
KNH1 190808Z 35015G23KT 01/M02 A3012 RMK A01 T00101023  RH  079%=      5-min Rain = 0
KNH1 190809Z 35019KT 01/M02 A3012 RMK A01 T00091023  RH  079%=      5-min Rain = 0
KNH1 190810Z 35015KT 01/M02 A3012 RMK A01 T00091023  RH  079%=      5-min Rain = 0
KNH1 190811Z 34014KT 01/M02 A3012 RMK A01 T00091023  RH  079%=      5-min Rain = 0
KNH1 190812Z 34014G19KT 01/M02 A3012 RMK A01 T00091023  RH  079%=      5-min Rain = 0
KNH1 190813Z 34014KT 01/M02 A3012 RMK A01 T00091022  RH  080%=      5-min Rain = 0
KNH1 190814Z 34012KT 01/M02 A3012 RMK A01 T00091022  RH  080%=      5-min Rain = 0
KNH1 190815Z 34013KT 01/M02 A3012 RMK A01 T00091022  RH  080%=      5-min Rain = 0
KNH1 190816Z 34013KT 01/M02 A3013 RMK A01 T00091022  RH  080%=      5-min Rain = 0
KNH1 190817Z 35012KT 01/M02 A3013 RMK A01 T00091022  RH  080%=      5-min Rain = 0
KNH1 190818Z 34012KT 01/M02 A3013 RMK A01 T00091022  RH  080%=      5-min Rain = 0
KNH1 190819Z 34016G22KT 01/M02 A3013 RMK A01 T00081022  RH  080%=      5-min Rain = 0
KNH1 190820Z 34013KT 01/M02 A3013 RMK A01 T00091023  RH  079%=      5-min Rain = 0
KNH1 190821Z 34015G20KT 01/M02 A3013 RMK A01 T00091023  RH  079%=      5-min Rain = 0
KNH1 190822Z 35018KT 01/M02 A3013 RMK A01 T00091024  RH  079%=      5-min Rain = 0
KNH1 190823Z 35018G23KT 01/M03 A3013 RMK A01 T00091025  RH  078%=      5-min Rain = 0
KNH1 190824Z 35019G24KT 01/M03 A3013 RMK A01 T00091025  RH  078%=      5-min Rain = 0
KNH1 190825Z 35018G24KT 01/M03 A3013 RMK A01 T00091026  RH  078%=      5-min Rain = 0
KNH1 190826Z 35017G22KT 01/M03 A3013 RMK A01 T00091026  RH  077%=      5-min Rain = 0
KNH1 190827Z 34019G24KT 01/M03 A3013 RMK A01 T00091026  RH  077%=      5-min Rain = 0
KNH1 190828Z 35016G21KT 01/M03 A3013 RMK A01 T00091027  RH  077%=      5-min Rain = 0
KNH1 190829Z 34016KT 01/M03 A3013 RMK A01 T00091027  RH  077%=      5-min Rain = 0
KNH1 190830Z 35022G30KT 01/M03 A3013 RMK A01 T00081027  RH  077%=      5-min Rain = 0
KNH1 190831Z 35024KT 01/M03 A3013 RMK A01 T00091029  RH  076%=      5-min Rain = 0
KNH1 190832Z 35025G32KT 01/M03 A3013 RMK A01 T00101031  RH  074%=      5-min Rain = 0
KNH1 190833Z 35023G28KT 01/M03 A3013 RMK A01 T00101031  RH  074%=      5-min Rain = 0
KNH1 190834Z 35021KT 01/M03 A3013 RMK A01 T00101031  RH  074%=      5-min Rain = 0
KNH1 190835Z 35022KT 01/M03 A3013 RMK A01 T00101031  RH  074%=      5-min Rain = 0
KNH1 190836Z 34020KT 01/M03 A3013 RMK A01 T00101030  RH  074%=      5-min Rain = 0
KNH1 190837Z 35019KT 01/M03 A3013 RMK A01 T00101031  RH  074%=      5-min Rain = 0
KNH1 190838Z 35017KT 01/M03 A3013 RMK A01 T00091031  RH  075%=      5-min Rain = 0
KNH1 190839Z 34017KT 01/M03 A3014 RMK A01 T00091030  RH  075%=      5-min Rain = 0
KNH1 190840Z 34017KT 01/M03 A3014 RMK A01 T00091030  RH  075%=      5-min Rain = 0
KNH1 190841Z 34015KT 01/M03 A3013 RMK A01 T00091029  RH  076%=      5-min Rain = 0
KNH1 190842Z 34014KT 01/M03 A3014 RMK A01 T00081029  RH  076%=      5-min Rain = 0
KNH1 190843Z 34013KT 01/M03 A3013 RMK A01 T00081028  RH  077%=      5-min Rain = 0
KNH1 190844Z 34014G19KT 01/M03 A3014 RMK A01 T00081028  RH  077%=      5-min Rain = 0
KNH1 190845Z 34018KT 01/M03 A3013 RMK A01 T00071027  RH  078%=      5-min Rain = 0
KNH1 190846Z 34014KT 01/M03 A3014 RMK A01 T00081027  RH  078%=      5-min Rain = 0
KNH1 190847Z 34019KT 01/M03 A3013 RMK A01 T00081027  RH  078%=      5-min Rain = 0
KNH1 190848Z 34019KT 01/M03 A3014 RMK A01 T00081027  RH  077%=      5-min Rain = 0
KNH1 190849Z 34017KT 01/M03 A3014 RMK A01 T00091027  RH  077%=      5-min Rain = 0
KNH1 190850Z 34015KT 01/M03 A3014 RMK A01 T00091027  RH  077%=      5-min Rain = 0
KNH1 190851Z 34018KT 01/M03 A3014 RMK A01 T00081028  RH  077%=      5-min Rain = 0
KNH1 190852Z 34019G24KT 01/M03 A3014 RMK A01 T00081028  RH  077%=      5-min Rain = 0
KNH1 190853Z 34021G27KT 01/M03 A3014 RMK A01 T00081029  RH  076%=      5-min Rain = 0
KNH1 190854Z 34017G22KT 01/M03 A3014 RMK A01 T00091029  RH  076%=      5-min Rain = 0
KNH1 190855Z 34019KT 01/M03 A3014 RMK A01 T00091029  RH  076%=      5-min Rain = 0
KNH1 190856Z 34018G23KT 01/M03 A3014 RMK A01 T00091029  RH  076%=      5-min Rain = 0
KNH1 190857Z 34018KT 01/M03 A3014 RMK A01 T00091029  RH  076%=      5-min Rain = 0
KNH1 190858Z 34017KT 01/M03 A3014 RMK A01 T00091029  RH  076%=      5-min Rain = 0
KNH1 190859Z 34018KT 01/M03 A3014 RMK A01 T00091029  RH  076%=      5-min Rain = 0
KNH1 190900Z 34016KT 01/M03 A3014 RMK A01 T00081029  RH  076%=      5-min Rain = 0
KNH1 190901Z 34014KT 01/M03 A3014 RMK A01 T00091029  RH  076%=      5-min Rain = 0
KNH1 190902Z 34015KT 01/M03 A3015 RMK A01 T00081028  RH  077%=      5-min Rain = 0
KNH1 190903Z 34013KT 01/M03 A3015 RMK A01 T00081028  RH  077%=      5-min Rain = 0
KNH1 190904Z 33012KT 01/M03 A3015 RMK A01 T00071028  RH  078%=      5-min Rain = 0
KNH1 190905Z 33014KT 01/M03 A3015 RMK A01 T00071027  RH  078%=      5-min Rain = 0
KNH1 190906Z 33014KT 01/M03 A3015 RMK A01 T00071027  RH  078%=      5-min Rain = 0
KNH1 190907Z 33012KT 01/M03 A3015 RMK A01 T00071027  RH  078%=      5-min Rain = 0
KNH1 190908Z 33013KT 01/M03 A3015 RMK A01 T00071027  RH  078%=      5-min Rain = 0
KNH1 190909Z 33014KT 01/M03 A3015 RMK A01 T00071027  RH  078%=      5-min Rain = 0
KNH1 190910Z 33015G20KT 01/M03 A3015 RMK A01 T00071027  RH  078%=      5-min Rain = 0
KNH1 190911Z 33016G21KT 01/M03 A3015 RMK A01 T00071027  RH  078%=      5-min Rain = 0
KNH1 190912Z 34015KT 01/M03 A3015 RMK A01 T00071028  RH  077%=      5-min Rain = 0
KNH1 190913Z 34018G23KT 01/M03 A3015 RMK A01 T00071028  RH  077%=      5-min Rain = 0
KNH1 190914Z 34016G21KT 01/M03 A3015 RMK A01 T00071029  RH  077%=      5-min Rain = 0
KNH1 190915Z 34016KT 01/M03 A3015 RMK A01 T00071029  RH  077%=      5-min Rain = 0
KNH1 190916Z 34020KT 01/M03 A3015 RMK A01 T00061030  RH  077%=      5-min Rain = 0
KNH1 190917Z 34017KT 01/M03 A3015 RMK A01 T00071030  RH  076%=      5-min Rain = 0
KNH1 190918Z 34016KT 01/M03 A3015 RMK A01 T00071030  RH  076%=      5-min Rain = 0
KNH1 190919Z 34018KT 01/M03 A3015 RMK A01 T00071030  RH  076%=      5-min Rain = 0
KNH1 190920Z 34019KT 01/M03 A3015 RMK A01 T00071030  RH  076%=      5-min Rain = 0
KNH1 190921Z 34016KT 01/M03 A3015 RMK A01 T00071031  RH  076%=      5-min Rain = 0
KNH1 190922Z 34016KT 01/M03 A3015 RMK A01 T00071031  RH  076%=      5-min Rain = 0
KNH1 190923Z 34015KT 01/M03 A3015 RMK A01 T00071030  RH  076%=      5-min Rain = 0
KNH1 190924Z 34017KT 01/M03 A3015 RMK A01 T00061031  RH  076%=      5-min Rain = 0
KNH1 190925Z 33017KT 01/M03 A3015 RMK A01 T00061031  RH  076%=      5-min Rain = 0
KNH1 190926Z 34016G21KT 01/M03 A3015 RMK A01 T00061031  RH  076%=      5-min Rain = 0
KNH1 190927Z 34015KT 01/M03 A3015 RMK A01 T00061031  RH  076%=      5-min Rain = 0
KNH1 190928Z 34016KT 01/M03 A3015 RMK A01 T00061031  RH  076%=      5-min Rain = 0
KNH1 190929Z 34017KT 01/M03 A3015 RMK A01 T00061031  RH  076%=      5-min Rain = 0
KNH1 190930Z 34018G23KT 01/M03 A3015 RMK A01 T00061031  RH  076%=      5-min Rain = 0
KNH1 190931Z 34017KT 01/M03 A3016 RMK A01 T00061031  RH  076%=      5-min Rain = 0
KNH1 190932Z 34016KT 01/M03 A3016 RMK A01 T00061031  RH  076%=      5-min Rain = 0
KNH1 190933Z 34016G22KT 01/M03 A3016 RMK A01 T00061031  RH  076%=      5-min Rain = 0
KNH1 190934Z 34019KT 01/M03 A3016 RMK A01 T00061031  RH  076%=      5-min Rain = 0
KNH1 190935Z 34021KT 01/M03 A3016 RMK A01 T00061031  RH  076%=      5-min Rain = 0
KNH1 190936Z 34017G22KT 01/M03 A3016 RMK A01 T00071031  RH  076%=      5-min Rain = 0
KNH1 190937Z 34018KT 01/M03 A3016 RMK A01 T00071031  RH  076%=      5-min Rain = 0
KNH1 190938Z 34018KT 01/M03 A3016 RMK A01 T00071031  RH  076%=      5-min Rain = 0
KNH1 190939Z 33016KT 01/M03 A3016 RMK A01 T00071031  RH  076%=      5-min Rain = 0
KNH1 190940Z 34019KT 01/M03 A3016 RMK A01 T00071031  RH  076%=      5-min Rain = 0
KNH1 190941Z 34019KT 01/M03 A3016 RMK A01 T00071031  RH  076%=      5-min Rain = 0
KNH1 190942Z 34019G24KT 01/M03 A3016 RMK A01 T00061032  RH  076%=      5-min Rain = 0
KNH1 190943Z 34017KT 01/M03 A3016 RMK A01 T00071032  RH  075%=      5-min Rain = 0
KNH1 190944Z 34020KT 01/M03 A3016 RMK A01 T00071032  RH  075%=      5-min Rain = 0
KNH1 190945Z 34020G25KT 01/M03 A3016 RMK A01 T00071033  RH  075%=      5-min Rain = 0
KNH1 190946Z 35021KT 01/M03 A3016 RMK A01 T00061034  RH  075%=      5-min Rain = 0
KNH1 190947Z 34020KT 01/M03 A3017 RMK A01 T00071034  RH  074%=      5-min Rain = 0
KNH1 190948Z 34020KT 01/M03 A3017 RMK A01 T00061034  RH  074%=      5-min Rain = 0
KNH1 190949Z 34018G24KT 01/M03 A3017 RMK A01 T00071034  RH  074%=      5-min Rain = 0
KNH1 190950Z 34020KT 01/M04 A3017 RMK A01 T00061035  RH  074%=      5-min Rain = 0
KNH1 190951Z 34020KT 01/M04 A3017 RMK A01 T00061035  RH  074%=      5-min Rain = 0
KNH1 190952Z 34018KT 01/M04 A3017 RMK A01 T00071035  RH  074%=      5-min Rain = 0
KNH1 190953Z 34019KT 01/M04 A3017 RMK A01 T00061035  RH  074%=      5-min Rain = 0
KNH1 190954Z 34021KT 01/M04 A3017 RMK A01 T00061036  RH  074%=      5-min Rain = 0
KNH1 190955Z 34019G24KT 01/M04 A3017 RMK A01 T00061036  RH  074%=      5-min Rain = 0
KNH1 190956Z 34018KT 01/M04 A3017 RMK A01 T00061036  RH  074%=      5-min Rain = 0
KNH1 190957Z 34018KT 01/M04 A3017 RMK A01 T00061036  RH  074%=      5-min Rain = 0
KNH1 190958Z 35017KT 01/M04 A3017 RMK A01 T00051036  RH  074%=      5-min Rain = 0
KNH1 190959Z 34019KT 01/M04 A3017 RMK A01 T00061036  RH  074%=      5-min Rain = 0
KNH1 191000Z 34019KT 01/M04 A3017 RMK A01 T00061035  RH  074%=      5-min Rain = 0
KNH1 191001Z 34017KT 01/M04 A3017 RMK A01 T00061036  RH  074%=      5-min Rain = 0
KNH1 191002Z 34018KT 01/M04 A3017 RMK A01 T00061036  RH  074%=      5-min Rain = 0
KNH1 191003Z 34016G22KT 01/M04 A3018 RMK A01 T00061036  RH  074%=      5-min Rain = 0
KNH1 191004Z 34019KT 01/M04 A3018 RMK A01 T00051036  RH  074%=      5-min Rain = 0
KNH1 191005Z 34018KT 01/M04 A3017 RMK A01 T00051035  RH  074%=      5-min Rain = 0
KNH1 191006Z 34018G23KT 01/M04 A3017 RMK A01 T00051035  RH  074%=      5-min Rain = 0
KNH1 191007Z 34019G24KT 01/M04 A3017 RMK A01 T00051035  RH  075%=      5-min Rain = 0
KNH1 191008Z 34018KT 01/M04 A3017 RMK A01 T00051035  RH  075%=      5-min Rain = 0
KNH1 191009Z 34020KT 01/M04 A3017 RMK A01 T00051035  RH  075%=      5-min Rain = 0
KNH1 191010Z 33015KT 01/M04 A3018 RMK A01 T00051035  RH  075%=      5-min Rain = 0
KNH1 191011Z 34017KT 01/M03 A3018 RMK A01 T00051034  RH  075%=      5-min Rain = 0
KNH1 191012Z 33015KT 01/M03 A3018 RMK A01 T00051034  RH  075%=      5-min Rain = 0
KNH1 191013Z 34018KT 01/M03 A3017 RMK A01 T00051033  RH  076%=      5-min Rain = 0
KNH1 191014Z 33017KT 00/M03 A3018 RMK A01 T00041033  RH  076%=      5-min Rain = 0
KNH1 191015Z 33016KT 00/M03 A3018 RMK A01 T00041033  RH  076%=      5-min Rain = 0
KNH1 191016Z 33017G22KT 00/M03 A3018 RMK A01 T00041033  RH  076%=      5-min Rain = 0
KNH1 191017Z 33016KT 00/M03 A3018 RMK A01 T00041032  RH  077%=      5-min Rain = 0
KNH1 191018Z 34016KT 00/M03 A3018 RMK A01 T00041032  RH  077%=      5-min Rain = 0
KNH1 191019Z 33014KT 00/M03 A3018 RMK A01 T00031032  RH  077%=      5-min Rain = 0
KNH1 191020Z 33014KT 00/M03 A3018 RMK A01 T00031032  RH  077%=      5-min Rain = 0
KNH1 191021Z 34015KT 00/M03 A3018 RMK A01 T00031031  RH  078%=      5-min Rain = 0
KNH1 191022Z 34017KT 00/M03 A3018 RMK A01 T00031031  RH  078%=      5-min Rain = 0
KNH1 191023Z 34017KT 00/M03 A3018 RMK A01 T00031031  RH  078%=      5-min Rain = 0
KNH1 191024Z 34018G23KT 00/M03 A3018 RMK A01 T00021032  RH  078%=      5-min Rain = 0
KNH1 191025Z 33018G24KT 00/M03 A3018 RMK A01 T00031031  RH  078%=      5-min Rain = 0
KNH1 191026Z 33020G26KT 00/M03 A3018 RMK A01 T00031031  RH  078%=      5-min Rain = 0
KNH1 191027Z 34018G23KT 00/M03 A3018 RMK A01 T00041031  RH  077%=      5-min Rain = 0
KNH1 191028Z 34019KT 00/M03 A3018 RMK A01 T00041031  RH  077%=      5-min Rain = 0
KNH1 191029Z 34018KT 00/M03 A3018 RMK A01 T00041031  RH  077%=      5-min Rain = 0
KNH1 191030Z 34019KT 00/M03 A3018 RMK A01 T00041031  RH  077%=      5-min Rain = 0
KNH1 191031Z 34022KT 00/M03 A3018 RMK A01 T00041032  RH  077%=      5-min Rain = 0
KNH1 191032Z 34020KT 00/M03 A3018 RMK A01 T00041031  RH  077%=      5-min Rain = 0
KNH1 191033Z 34018KT 01/M03 A3018 RMK A01 T00051031  RH  077%=      5-min Rain = 0
KNH1 191034Z 34017KT 01/M03 A3018 RMK A01 T00051031  RH  077%=      5-min Rain = 0
KNH1 191035Z 34018KT 00/M03 A3018 RMK A01 T00041031  RH  077%=      5-min Rain = 0
KNH1 191036Z 34018KT 01/M03 A3018 RMK A01 T00051031  RH  077%=      5-min Rain = 0
KNH1 191037Z 34019KT 00/M03 A3018 RMK A01 T00041031  RH  077%=      5-min Rain = 0
KNH1 191038Z 34019KT 00/M03 A3018 RMK A01 T00041031  RH  077%=      5-min Rain = 0
KNH1 191039Z 34017KT 00/M03 A3019 RMK A01 T00041031  RH  077%=      5-min Rain = 0
KNH1 191040Z 34017KT 00/M03 A3018 RMK A01 T00041031  RH  077%=      5-min Rain = 0
KNH1 191041Z 34016KT 00/M03 A3018 RMK A01 T00041031  RH  078%=      5-min Rain = 0
KNH1 191042Z 34018KT 00/M03 A3019 RMK A01 T00031031  RH  078%=      5-min Rain = 0
KNH1 191043Z 34018G25KT 00/M03 A3019 RMK A01 T00031031  RH  078%=      5-min Rain = 0
KNH1 191044Z 34018KT 00/M03 A3019 RMK A01 T00041031  RH  078%=      5-min Rain = 0
KNH1 191045Z 34018KT 00/M03 A3019 RMK A01 T00041031  RH  078%=      5-min Rain = 0
KNH1 191046Z 34019KT 00/M03 A3019 RMK A01 T00031031  RH  078%=      5-min Rain = 0
KNH1 191047Z 34018KT 00/M03 A3019 RMK A01 T00031031  RH  078%=      5-min Rain = 0
KNH1 191048Z 34017KT 00/M03 A3019 RMK A01 T00041031  RH  078%=      5-min Rain = 0
KNH1 191049Z 34020KT 00/M03 A3019 RMK A01 T00031031  RH  078%=      5-min Rain = 0
KNH1 191050Z 33020KT 00/M03 A3019 RMK A01 T00041031  RH  078%=      5-min Rain = 0
KNH1 191051Z 34018KT 00/M03 A3019 RMK A01 T00041031  RH  078%=      5-min Rain = 0
KNH1 191052Z 34017KT 00/M03 A3019 RMK A01 T00041031  RH  078%=      5-min Rain = 0
KNH1 191053Z 34018KT 00/M03 A3019 RMK A01 T00041031  RH  078%=      5-min Rain = 0
KNH1 191054Z 34018KT 00/M03 A3019 RMK A01 T00041030  RH  078%=      5-min Rain = 0
KNH1 191055Z 34018KT 00/M03 A3019 RMK A01 T00041030  RH  078%=      5-min Rain = 0
KNH1 191056Z 33017KT 00/M03 A3019 RMK A01 T00041030  RH  078%=      5-min Rain = 0
KNH1 191057Z 34017KT 00/M03 A3019 RMK A01 T00041030  RH  078%=      5-min Rain = 0
KNH1 191058Z 34017G22KT 00/M03 A3019 RMK A01 T00031030  RH  078%=      5-min Rain = 0
KNH1 191059Z 34018KT 00/M03 A3019 RMK A01 T00031030  RH  078%=      5-min Rain = 0
KNH1 191100Z 34016G21KT 00/M03 A3019 RMK A01 T00031030  RH  078%=      5-min Rain = 0
KNH1 191101Z 34018KT 00/M03 A3019 RMK A01 T00031030  RH  078%=      5-min Rain = 0
KNH1 191102Z 33017KT 00/M03 A3019 RMK A01 T00031030  RH  078%=      5-min Rain = 0
KNH1 191103Z 34016KT 00/M03 A302 RMK A01 T00041030  RH  078%=      5-min Rain = 0
KNH1 191104Z 34018KT 00/M03 A302 RMK A01 T00031030  RH  078%=      5-min Rain = 0
KNH1 191105Z 34018KT 00/M03 A302 RMK A01 T00041030  RH  078%=      5-min Rain = 0
KNH1 191106Z 34016KT 00/M03 A302 RMK A01 T00041030  RH  078%=      5-min Rain = 0
KNH1 191107Z 34017KT 00/M03 A302 RMK A01 T00031030  RH  078%=      5-min Rain = 0
KNH1 191108Z 34017KT 00/M03 A302 RMK A01 T00041030  RH  078%=      5-min Rain = 0
KNH1 191109Z 34017KT 00/M03 A302 RMK A01 T00041030  RH  078%=      5-min Rain = 0
KNH1 191110Z 34017G22KT 00/M03 A302 RMK A01 T00031030  RH  078%=      5-min Rain = 0
KNH1 191111Z 34016G21KT 00/M03 A302 RMK A01 T00031030  RH  078%=      5-min Rain = 0
KNH1 191112Z 34017G22KT 00/M03 A302 RMK A01 T00031030  RH  078%=      5-min Rain = 0
KNH1 191113Z 34016G21KT 00/M03 A302 RMK A01 T00031030  RH  078%=      5-min Rain = 0
KNH1 191114Z 34018KT 00/M03 A302 RMK A01 T00031030  RH  078%=      5-min Rain = 0
KNH1 191115Z 34016KT 00/M03 A302 RMK A01 T00041030  RH  078%=      5-min Rain = 0
KNH1 191116Z 34015KT 00/M03 A302 RMK A01 T00041030  RH  078%=      5-min Rain = 0
KNH1 191117Z 34015KT 00/M03 A302 RMK A01 T00041030  RH  078%=      5-min Rain = 0
KNH1 191118Z 34015KT 00/M03 A3019 RMK A01 T00041030  RH  078%=      5-min Rain = 0
KNH1 191119Z 34016KT 00/M03 A302 RMK A01 T00041030  RH  078%=      5-min Rain = 0
KNH1 191120Z 34014KT 00/M03 A3019 RMK A01 T00031030  RH  078%=      5-min Rain = 0
KNH1 191121Z 34017KT 00/M03 A302 RMK A01 T00031030  RH  078%=      5-min Rain = 0
KNH1 191122Z 34017KT 00/M03 A302 RMK A01 T00041030  RH  078%=      5-min Rain = 0
KNH1 191123Z 33016KT 00/M03 A302 RMK A01 T00041031  RH  078%=      5-min Rain = 0
KNH1 191124Z 34017KT 00/M03 A3019 RMK A01 T00041031  RH  078%=      5-min Rain = 0
KNH1 191125Z 34016KT 00/M03 A302 RMK A01 T00041030  RH  078%=      5-min Rain = 0
KNH1 191126Z 34017KT 00/M03 A3019 RMK A01 T00041031  RH  078%=      5-min Rain = 0
KNH1 191127Z 34016KT 00/M03 A302 RMK A01 T00041031  RH  078%=      5-min Rain = 0
KNH1 191128Z 34016KT 00/M03 A3019 RMK A01 T00041031  RH  078%=      5-min Rain = 0
KNH1 191129Z 34014KT 00/M03 A3019 RMK A01 T00041031  RH  078%=      5-min Rain = 0
KNH1 191130Z 34015KT 00/M03 A3019 RMK A01 T00041030  RH  078%=      5-min Rain = 0
KNH1 191131Z 34016KT 00/M03 A3019 RMK A01 T00041031  RH  078%=      5-min Rain = 0
KNH1 191132Z 34017G22KT 00/M03 A302 RMK A01 T00041031  RH  078%=      5-min Rain = 0
KNH1 191133Z 34015KT 00/M03 A3019 RMK A01 T00041031  RH  078%=      5-min Rain = 0
KNH1 191134Z 34015KT 00/M03 A3019 RMK A01 T00041031  RH  078%=      5-min Rain = 0
KNH1 191135Z 34015KT 00/M03 A302 RMK A01 T00041031  RH  078%=      5-min Rain = 0
KNH1 191136Z 34016KT 00/M03 A3019 RMK A01 T00041030  RH  078%=      5-min Rain = 0
KNH1 191137Z 34015KT 00/M03 A3019 RMK A01 T00041031  RH  078%=      5-min Rain = 0
KNH1 191138Z 34016KT 00/M03 A302 RMK A01 T00041031  RH  078%=      5-min Rain = 0
KNH1 191139Z 34016KT 00/M03 A3019 RMK A01 T00041031  RH  078%=      5-min Rain = 0
KNH1 191140Z 34015KT 00/M03 A3019 RMK A01 T00031031  RH  078%=      5-min Rain = 0
KNH1 191141Z 34015KT 00/M03 A3019 RMK A01 T00041031  RH  078%=      5-min Rain = 0
KNH1 191142Z 34015KT 00/M03 A3019 RMK A01 T00031031  RH  078%=      5-min Rain = 0
KNH1 191143Z 34016KT 00/M03 A302 RMK A01 T00031031  RH  078%=      5-min Rain = 0
KNH1 191144Z 34015KT 00/M03 A302 RMK A01 T00041031  RH  078%=      5-min Rain = 0
KNH1 191145Z 34015KT 00/M03 A302 RMK A01 T00031031  RH  078%=      5-min Rain = 0
KNH1 191146Z 34016KT 00/M03 A302 RMK A01 T00031031  RH  078%=      5-min Rain = 0
KNH1 191147Z 34015KT 00/M03 A302 RMK A01 T00041031  RH  078%=      5-min Rain = 0
KNH1 191148Z 34014KT 00/M03 A302 RMK A01 T00041031  RH  078%=      5-min Rain = 0
KNH1 191149Z 34013KT 00/M03 A302 RMK A01 T00031031  RH  078%=      5-min Rain = 0
KNH1 191150Z 34013KT 00/M03 A302 RMK A01 T00031031  RH  078%=      5-min Rain = 0
KNH1 191151Z 35013KT 00/M03 A302 RMK A01 T00031031  RH  078%=      5-min Rain = 0
KNH1 191152Z 34013KT 00/M03 A302 RMK A01 T00031031  RH  078%=      5-min Rain = 0
KNH1 191153Z 34014KT 00/M03 A302 RMK A01 T00021031  RH  078%=      5-min Rain = 0
KNH1 191154Z 34012KT 00/M03 A302 RMK A01 T00021031  RH  079%=      5-min Rain = 0
KNH1 191155Z 34013KT 00/M03 A302 RMK A01 T00011031  RH  079%=      5-min Rain = 0
KNH1 191156Z 35011KT 00/M03 A302 RMK A01 T00011031  RH  079%=      5-min Rain = 0
KNH1 191157Z 35012KT 00/03 A302 RMK A01 T00000-32  RH  079%=      5-min Rain = 0
KNH1 191158Z 34012KT 00/03 A302 RMK A01 T00000-31  RH  079%=      5-min Rain = 0
KNH1 191159Z 34011KT 00/03 A302 RMK A01 T00000-31  RH  079%=      5-min Rain = 0
KNH1 191200Z 34010KT 00/03 A302 RMK A01 T00000-31  RH  079%=      5-min Rain = 0
KNH1 191201Z 34011KT 00/03 A302 RMK A01 T00000-31  RH  079%=      5-min Rain = 0
KNH1 191202Z 34012KT 00/03 A302 RMK A01 T00-00-31  RH  080%=      5-min Rain = 0
KNH1 191203Z 34013KT 00/03 A302 RMK A01 T00-00-31  RH  080%=      5-min Rain = 0
KNH1 191204Z 34012KT 00/03 A302 RMK A01 T00000-31  RH  080%=      5-min Rain = 0
KNH1 191205Z 34011KT 00/03 A302 RMK A01 T00-00-31  RH  080%=      5-min Rain = 0
KNH1 191206Z 34012KT M00/M03 A302 RMK A01 T10011031  RH  080%=      5-min Rain = 0
KNH1 191207Z 34012KT M00/M03 A302 RMK A01 T10011031  RH  080%=      5-min Rain = 0
KNH1 191208Z 34011KT M00/M03 A3021 RMK A01 T10011031  RH  080%=      5-min Rain = 0
KNH1 191209Z 34012KT M00/M03 A3021 RMK A01 T10011031  RH  080%=      5-min Rain = 0
KNH1 191210Z 34011KT 00/03 A3021 RMK A01 T00-00-30  RH  080%=      5-min Rain = 0
KNH1 191211Z 35011KT M00/M03 A3021 RMK A01 T10011031  RH  080%=      5-min Rain = 0
KNH1 191212Z 35011KT M00/M03 A3021 RMK A01 T10011031  RH  080%=      5-min Rain = 0
KNH1 191213Z 35011KT M00/M03 A3021 RMK A01 T10021032  RH  080%=      5-min Rain = 0
KNH1 191214Z 35013KT M00/M03 A3021 RMK A01 T10021032  RH  081%=      5-min Rain = 0
KNH1 191215Z 35012KT M00/M03 A3021 RMK A01 T10031032  RH  081%=      5-min Rain = 0
KNH1 191216Z 35011KT M00/M03 A302 RMK A01 T10031032  RH  081%=      5-min Rain = 0
KNH1 191217Z 36010KT M00/M03 A302 RMK A01 T10021031  RH  081%=      5-min Rain = 0
KNH1 191218Z 36009KT M00/M03 A302 RMK A01 T10031032  RH  081%=      5-min Rain = 0
KNH1 191219Z 35010KT M00/M03 A302 RMK A01 T10041032  RH  081%=      5-min Rain = 0
KNH1 191220Z 36011KT M00/M03 A302 RMK A01 T10041032  RH  082%=      5-min Rain = 0
KNH1 191221Z 36011KT M01/M03 A302 RMK A01 T10051032  RH  082%=      5-min Rain = 0
KNH1 191222Z 35011KT M01/M03 A302 RMK A01 T10051032  RH  082%=      5-min Rain = 0
KNH1 191223Z 36012KT M01/M03 A3021 RMK A01 T10051032  RH  082%=      5-min Rain = 0
KNH1 191224Z 35012KT M00/M03 A3021 RMK A01 T10041031  RH  082%=      5-min Rain = 0
KNH1 191225Z 35013KT M00/M03 A3021 RMK A01 T10041031  RH  082%=      5-min Rain = 0
KNH1 191226Z 35011KT M00/M03 A3021 RMK A01 T10031031  RH  082%=      5-min Rain = 0
KNH1 191227Z 35012KT M00/M03 A3021 RMK A01 T10031031  RH  082%=      5-min Rain = 0
KNH1 191228Z 36012KT M00/M03 A3021 RMK A01 T10031031  RH  082%=      5-min Rain = 0
KNH1 191229Z 35012KT M00/M03 A3021 RMK A01 T10031031  RH  081%=      5-min Rain = 0
KNH1 191230Z 35012KT M00/M03 A3021 RMK A01 T10031031  RH  081%=      5-min Rain = 0
KNH1 191231Z 35011KT M00/M03 A3021 RMK A01 T10031031  RH  081%=      5-min Rain = 0
KNH1 191232Z 35011KT M00/M03 A3021 RMK A01 T10041032  RH  081%=      5-min Rain = 0
KNH1 191233Z 35011KT M00/M03 A3021 RMK A01 T10031031  RH  082%=      5-min Rain = 0
KNH1 191234Z 35012KT M00/M03 A3021 RMK A01 T10041032  RH  082%=      5-min Rain = 0
KNH1 191235Z 35012KT M00/M03 A3021 RMK A01 T10041031  RH  082%=      5-min Rain = 0
KNH1 191236Z 35012KT M00/M03 A3021 RMK A01 T10041032  RH  082%=      5-min Rain = 0
KNH1 191237Z 35011KT M00/M03 A3021 RMK A01 T10041031  RH  082%=      5-min Rain = 0
KNH1 191238Z 34010KT M00/M03 A3021 RMK A01 T10041031  RH  082%=      5-min Rain = 0
KNH1 191239Z 34011KT M00/M03 A3021 RMK A01 T10041031  RH  082%=      5-min Rain = 0
KNH1 191240Z 34010KT M00/M03 A3021 RMK A01 T10041031  RH  082%=      5-min Rain = 0
KNH1 191241Z 34012KT M00/M03 A3021 RMK A01 T10041031  RH  082%=      5-min Rain = 0
KNH1 191242Z 34013KT M00/M03 A3022 RMK A01 T10041031  RH  082%=      5-min Rain = 0
KNH1 191243Z 34013KT M00/M03 A3022 RMK A01 T10041031  RH  082%=      5-min Rain = 0
KNH1 191244Z 34012KT M00/M03 A3022 RMK A01 T10031031  RH  082%=      5-min Rain = 0
KNH1 191245Z 34011KT M00/M03 A3022 RMK A01 T10031031  RH  082%=      5-min Rain = 0
KNH1 191246Z 34011KT M00/M03 A3022 RMK A01 T10031031  RH  082%=      5-min Rain = 0
KNH1 191247Z 34010KT M00/M03 A3022 RMK A01 T10041031  RH  082%=      5-min Rain = 0
KNH1 191248Z 34011KT M00/M03 A3022 RMK A01 T10041031  RH  082%=      5-min Rain = 0
KNH1 191249Z 34011KT M00/M03 A3022 RMK A01 T10041031  RH  082%=      5-min Rain = 0
KNH1 191250Z 33010KT M01/M03 A3022 RMK A01 T10051031  RH  083%=      5-min Rain = 0
KNH1 191251Z 34010KT M01/M03 A3022 RMK A01 T10051031  RH  083%=      5-min Rain = 0
KNH1 191252Z 33011KT M01/M03 A3022 RMK A01 T10061031  RH  083%=      5-min Rain = 0
KNH1 191253Z 34010KT M01/M03 A3022 RMK A01 T10061031  RH  083%=      5-min Rain = 0
KNH1 191254Z 34010KT M01/M03 A3022 RMK A01 T10061031  RH  083%=      5-min Rain = 0
KNH1 191255Z 34010KT M01/M03 A3022 RMK A01 T10071031  RH  084%=      5-min Rain = 0
KNH1 191256Z 34010KT M01/M03 A3022 RMK A01 T10071031  RH  084%=      5-min Rain = 0
KNH1 191257Z 33010KT M01/M03 A3022 RMK A01 T10081032  RH  084%=      5-min Rain = 0
KNH1 191258Z 34011KT M01/M03 A3022 RMK A01 T10081032  RH  084%=      5-min Rain = 0
KNH1 191259Z 34011KT M01/M03 A3022 RMK A01 T10081031  RH  084%=      5-min Rain = 0
KNH1 191300Z 34011KT M01/M03 A3022 RMK A01 T10081031  RH  084%=      5-min Rain = 0
KNH1 191301Z 34011KT M01/M03 A3023 RMK A01 T10071031  RH  084%=      5-min Rain = 0
KNH1 191302Z 34011KT M01/M03 A3023 RMK A01 T10071031  RH  084%=      5-min Rain = 0
KNH1 191303Z 34011KT M01/M03 A3023 RMK A01 T10071031  RH  084%=      5-min Rain = 0
KNH1 191304Z 34011KT M01/M03 A3023 RMK A01 T10071031  RH  084%=      5-min Rain = 0
KNH1 191305Z 34011KT M01/M03 A3023 RMK A01 T10071031  RH  084%=      5-min Rain = 0
KNH1 191306Z 34012KT M01/M03 A3023 RMK A01 T10081031  RH  084%=      5-min Rain = 0
KNH1 191307Z 34011KT M01/M03 A3023 RMK A01 T10081032  RH  084%=      5-min Rain = 0
KNH1 191308Z 34011KT M01/M03 A3023 RMK A01 T10091032  RH  084%=      5-min Rain = 0
KNH1 191309Z 34011KT M01/M03 A3023 RMK A01 T10101032  RH  085%=      5-min Rain = 0
KNH1 191310Z 34010KT M01/M03 A3023 RMK A01 T10101032  RH  085%=      5-min Rain = 0
KNH1 191311Z 34011KT M01/M03 A3023 RMK A01 T10101032  RH  085%=      5-min Rain = 0
KNH1 191312Z 34011KT M01/M03 A3023 RMK A01 T10101032  RH  085%=      5-min Rain = 0
KNH1 191313Z 33011KT M01/M03 A3023 RMK A01 T10101032  RH  085%=      5-min Rain = 0
KNH1 191314Z 34011KT M01/M03 A3023 RMK A01 T10101032  RH  085%=      5-min Rain = 0
KNH1 191315Z 33010KT M01/M03 A3023 RMK A01 T10101032  RH  085%=      5-min Rain = 0
KNH1 191316Z 33009KT M01/M03 A3024 RMK A01 T10101032  RH  085%=      5-min Rain = 0
KNH1 191317Z 33009KT M01/M03 A3024 RMK A01 T10091032  RH  085%=      5-min Rain = 0
KNH1 191318Z 33009KT M01/M03 A3024 RMK A01 T10101032  RH  085%=      5-min Rain = 0
KNH1 191319Z 33009KT M01/M03 A3024 RMK A01 T10091032  RH  085%=      5-min Rain = 0
KNH1 191320Z 33009KT M01/M03 A3024 RMK A01 T10091032  RH  084%=      5-min Rain = 0
KNH1 191321Z 33008KT M01/M03 A3024 RMK A01 T10091032  RH  084%=      5-min Rain = 0
KNH1 191322Z 33009KT M01/M03 A3024 RMK A01 T10091032  RH  084%=      5-min Rain = 0
KNH1 191323Z 33008KT M01/M03 A3024 RMK A01 T10091032  RH  084%=      5-min Rain = 0
KNH1 191324Z 32008KT M01/M03 A3024 RMK A01 T10091032  RH  084%=      5-min Rain = 0
KNH1 191325Z 32007KT M01/M03 A3024 RMK A01 T10101033  RH  085%=      5-min Rain = 0
KNH1 191326Z 32006KT M01/M03 A3024 RMK A01 T10101033  RH  085%=      5-min Rain = 0
KNH1 191327Z 33007G13KT M01/M03 A3024 RMK A01 T10111033  RH  085%=      5-min Rain = 0
KNH1 191328Z 32008G13KT M01/M03 A3024 RMK A01 T10111033  RH  085%=      5-min Rain = 0
KNH1 191329Z 32007KT M01/M03 A3024 RMK A01 T10111033  RH  085%=      5-min Rain = 0
KNH1 191330Z 32007KT M01/M03 A3024 RMK A01 T10111033  RH  085%=      5-min Rain = 0
KNH1 191331Z 32006KT M01/M03 A3024 RMK A01 T10111033  RH  085%=      5-min Rain = 0
KNH1 191332Z 32007KT M01/M03 A3025 RMK A01 T10111033  RH  085%=      5-min Rain = 0
KNH1 191333Z 32008KT M01/M03 A3025 RMK A01 T10111033  RH  085%=      5-min Rain = 0
KNH1 191334Z 31007KT M01/M03 A3025 RMK A01 T10111034  RH  085%=      5-min Rain = 0
KNH1 191335Z 32006KT M01/M03 A3025 RMK A01 T10111034  RH  085%=      5-min Rain = 0
KNH1 191336Z 32008KT M01/M03 A3025 RMK A01 T10111034  RH  085%=      5-min Rain = 0
KNH1 191337Z 32007KT M01/M03 A3025 RMK A01 T10111034  RH  085%=      5-min Rain = 0
KNH1 191338Z 32007G12KT M01/M03 A3025 RMK A01 T10111034  RH  084%=      5-min Rain = 0
KNH1 191339Z 32007KT M01/M03 A3025 RMK A01 T10111034  RH  084%=      5-min Rain = 0
KNH1 191340Z 32007KT M01/M03 A3025 RMK A01 T10111034  RH  084%=      5-min Rain = 0
KNH1 191341Z 31006KT M01/M03 A3025 RMK A01 T10111034  RH  084%=      5-min Rain = 0
KNH1 191342Z 32006KT M01/M04 A3025 RMK A01 T10111035  RH  084%=      5-min Rain = 0
KNH1 191343Z 31006KT M01/M03 A3025 RMK A01 T10101034  RH  084%=      5-min Rain = 0
KNH1 191344Z 32006KT M01/M04 A3025 RMK A01 T10101035  RH  083%=      5-min Rain = 0
KNH1 191345Z 32006G11KT M01/M04 A3025 RMK A01 T10101035  RH  083%=      5-min Rain = 0
KNH1 191346Z 31005KT M01/M04 A3025 RMK A01 T10101035  RH  083%=      5-min Rain = 0
KNH1 191347Z 32007KT M01/M04 A3025 RMK A01 T10091035  RH  083%=      5-min Rain = 0
KNH1 191348Z 32006G11KT M01/M04 A3025 RMK A01 T10101035  RH  083%=      5-min Rain = 0
KNH1 191349Z 32006KT M01/M04 A3025 RMK A01 T10091035  RH  083%=      5-min Rain = 0
KNH1 191350Z 32006KT M01/M04 A3025 RMK A01 T10091035  RH  083%=      5-min Rain = 0
KNH1 191351Z 31005KT M01/M04 A3026 RMK A01 T10091035  RH  083%=      5-min Rain = 0
KNH1 191352Z 31008KT M01/M04 A3026 RMK A01 T10091035  RH  083%=      5-min Rain = 0
KNH1 191353Z 32006G11KT M01/M03 A3026 RMK A01 T10081034  RH  083%=      5-min Rain = 0
KNH1 191354Z 32006KT M01/M03 A3026 RMK A01 T10081034  RH  083%=      5-min Rain = 0
KNH1 191355Z 32006KT M01/M03 A3026 RMK A01 T10081034  RH  083%=      5-min Rain = 0
KNH1 191356Z 32006KT M01/M03 A3026 RMK A01 T10081034  RH  083%=      5-min Rain = 0
KNH1 191357Z 32006KT M01/M03 A3026 RMK A01 T10081034  RH  083%=      5-min Rain = 0
KNH1 191358Z 32006KT M01/M03 A3026 RMK A01 T10081034  RH  083%=      5-min Rain = 0
KNH1 191359Z 32006KT M01/M03 A3026 RMK A01 T10081034  RH  082%=      5-min Rain = 0
KNH1 191400Z 32007KT M01/M03 A3026 RMK A01 T10071033  RH  082%=      5-min Rain = 0
KNH1 191401Z 32006KT M01/M03 A3026 RMK A01 T10071034  RH  082%=      5-min Rain = 0
KNH1 191402Z 31006KT M01/M03 A3026 RMK A01 T10071033  RH  082%=      5-min Rain = 0
KNH1 191403Z 31006KT M01/M03 A3026 RMK A01 T10071034  RH  082%=      5-min Rain = 0
KNH1 191404Z 31006KT M01/M03 A3026 RMK A01 T10061033  RH  082%=      5-min Rain = 0
KNH1 191405Z 32008KT M01/M03 A3026 RMK A01 T10071033  RH  082%=      5-min Rain = 0
KNH1 191406Z 31007KT M01/M03 A3026 RMK A01 T10061033  RH  082%=      5-min Rain = 0
KNH1 191407Z 32008KT M01/M03 A3026 RMK A01 T10061033  RH  082%=      5-min Rain = 0
KNH1 191408Z 31007KT M01/M03 A3026 RMK A01 T10061033  RH  082%=      5-min Rain = 0
KNH1 191409Z 33006KT M01/M03 A3026 RMK A01 T10051033  RH  082%=      5-min Rain = 0
KNH1 191410Z 32007KT M01/M03 A3026 RMK A01 T10051033  RH  082%=      5-min Rain = 0
KNH1 191411Z 31006G11KT M01/M03 A3026 RMK A01 T10051033  RH  081%=      5-min Rain = 0
KNH1 191412Z 32006KT M01/M03 A3027 RMK A01 T10051033  RH  081%=      5-min Rain = 0
KNH1 191413Z 32006KT M01/M03 A3027 RMK A01 T10051033  RH  081%=      5-min Rain = 0
KNH1 191414Z 32007KT M01/M03 A3027 RMK A01 T10051033  RH  082%=      5-min Rain = 0
KNH1 191415Z 31006KT M01/M03 A3027 RMK A01 T10051033  RH  082%=      5-min Rain = 0
KNH1 191416Z 32005KT M01/M03 A3027 RMK A01 T10051033  RH  081%=      5-min Rain = 0
KNH1 191417Z 32006KT M01/M03 A3027 RMK A01 T10051033  RH  081%=      5-min Rain = 0
KNH1 191418Z 32005KT M00/M03 A3027 RMK A01 T10041033  RH  081%=      5-min Rain = 0
KNH1 191419Z 32006KT M01/M03 A3027 RMK A01 T10051033  RH  081%=      5-min Rain = 0
KNH1 191420Z 31005KT M00/M03 A3027 RMK A01 T10041033  RH  081%=      5-min Rain = 0
KNH1 191421Z 31005KT M00/M03 A3027 RMK A01 T10041033  RH  081%=      5-min Rain = 0
KNH1 191422Z 31006KT M00/M03 A3027 RMK A01 T10041032  RH  081%=      5-min Rain = 0
KNH1 191423Z 31006KT M00/M03 A3027 RMK A01 T10041032  RH  081%=      5-min Rain = 0
KNH1 191424Z 31005KT M00/M03 A3027 RMK A01 T10041032  RH  081%=      5-min Rain = 0
KNH1 191425Z 31006KT M00/M03 A3027 RMK A01 T10041032  RH  081%=      5-min Rain = 0
KNH1 191426Z 31006KT M00/M03 A3027 RMK A01 T10041032  RH  081%=      5-min Rain = 0
KNH1 191427Z 31006KT M01/M03 A3028 RMK A01 T10051033  RH  081%=      5-min Rain = 0
KNH1 191428Z 30006KT M00/M03 A3028 RMK A01 T10041032  RH  081%=      5-min Rain = 0
KNH1 191429Z 31006KT M00/M03 A3028 RMK A01 T10041032  RH  081%=      5-min Rain = 0
KNH1 191430Z 31006KT M00/M03 A3028 RMK A01 T10031032  RH  081%=      5-min Rain = 0
KNH1 191431Z 31006KT M00/M03 A3028 RMK A01 T10031032  RH  081%=      5-min Rain = 0
KNH1 191432Z 32005KT M00/M03 A3028 RMK A01 T10031032  RH  081%=      5-min Rain = 0
KNH1 191433Z 32006KT M00/M03 A3028 RMK A01 T10021031  RH  080%=      5-min Rain = 0
KNH1 191434Z 32005KT M00/M03 A3028 RMK A01 T10011031  RH  080%=      5-min Rain = 0
KNH1 191435Z 32004KT M00/M03 A3028 RMK A01 T10011031  RH  080%=      5-min Rain = 0
KNH1 191436Z 32006KT 00/03 A3028 RMK A01 T00-00-31  RH  080%=      5-min Rain = 0
KNH1 191437Z 31005KT 00/M03 A3028 RMK A01 T00011030  RH  080%=      5-min Rain = 0
KNH1 191438Z 32007KT 00/M03 A3028 RMK A01 T00011030  RH  080%=      5-min Rain = 0
KNH1 191439Z 31005KT 00/M03 A3028 RMK A01 T00021029  RH  079%=      5-min Rain = 0
KNH1 191440Z 33006KT 00/M03 A3028 RMK A01 T00031030  RH  079%=      5-min Rain = 0
KNH1 191441Z 32006KT 00/M03 A3028 RMK A01 T00031029  RH  079%=      5-min Rain = 0
KNH1 191442Z 33007KT 00/M03 A3029 RMK A01 T00041029  RH  078%=      5-min Rain = 0
KNH1 191443Z 33007KT 01/M03 A3029 RMK A01 T00051029  RH  078%=      5-min Rain = 0
KNH1 191444Z 33007KT 01/M03 A3029 RMK A01 T00061028  RH  078%=      5-min Rain = 0
KNH1 191445Z 33008KT 01/M03 A3029 RMK A01 T00071028  RH  077%=      5-min Rain = 0
KNH1 191446Z 32007G12KT 01/M03 A3029 RMK A01 T00081028  RH  077%=      5-min Rain = 0
KNH1 191447Z 32008KT 01/M03 A3029 RMK A01 T00101028  RH  076%=      5-min Rain = 0
KNH1 191448Z 33010G15KT 01/M03 A3029 RMK A01 T00111028  RH  075%=      5-min Rain = 0
KNH1 191449Z 33011KT 01/M03 A3029 RMK A01 T00121029  RH  074%=      5-min Rain = 0
KNH1 191450Z 33009KT 01/M03 A3029 RMK A01 T00131029  RH  074%=      5-min Rain = 0
KNH1 191451Z 33011KT 01/M03 A3029 RMK A01 T00131029  RH  074%=      5-min Rain = 0
KNH1 191452Z 32012KT 01/M03 A3029 RMK A01 T00141029  RH  073%=      5-min Rain = 0
KNH1 191453Z 33011KT 02/M03 A3029 RMK A01 T00151029  RH  073%=      5-min Rain = 0
KNH1 191454Z 33010KT 02/M03 A3029 RMK A01 T00151029  RH  073%=      5-min Rain = 0
KNH1 191455Z 33012KT 02/M03 A3029 RMK A01 T00161028  RH  072%=      5-min Rain = 0
KNH1 191456Z 33012KT 02/M03 A3029 RMK A01 T00171028  RH  072%=      5-min Rain = 0
KNH1 191457Z 33013KT 02/M03 A3029 RMK A01 T00181028  RH  072%=      5-min Rain = 0
KNH1 191458Z 33012KT 02/M03 A3029 RMK A01 T00181028  RH  071%=      5-min Rain = 0
KNH1 191459Z 33012KT 02/M03 A3029 RMK A01 T00191027  RH  071%=      5-min Rain = 0
KNH1 191500Z 33010KT 02/M03 A3029 RMK A01 T00191027  RH  071%=      5-min Rain = 0
KNH1 191501Z 34013KT 02/M03 A3029 RMK A01 T00201027  RH  071%=      5-min Rain = 0
KNH1 191502Z 34011KT 02/M03 A303 RMK A01 T00201026  RH  071%=      5-min Rain = 0
KNH1 191503Z 33013KT 02/M03 A303 RMK A01 T00211026  RH  071%=      5-min Rain = 0
KNH1 191504Z 34012KT 02/M03 A303 RMK A01 T00211026  RH  071%=      5-min Rain = 0
KNH1 191505Z 34013KT 02/M03 A303 RMK A01 T00221026  RH  071%=      5-min Rain = 0
KNH1 191506Z 33013KT 02/M03 A303 RMK A01 T00221026  RH  071%=      5-min Rain = 0
KNH1 191507Z 33011KT 02/M03 A303 RMK A01 T00231027  RH  070%=      5-min Rain = 0
KNH1 191508Z 34011KT 02/M03 A303 RMK A01 T00241026  RH  069%=      5-min Rain = 0
KNH1 191509Z 34012KT 03/M03 A303 RMK A01 T00251026  RH  069%=      5-min Rain = 0
KNH1 191510Z 33011G16KT 03/M03 A303 RMK A01 T00261026  RH  069%=      5-min Rain = 0
KNH1 191511Z 34013KT 03/M03 A303 RMK A01 T00261026  RH  068%=      5-min Rain = 0
KNH1 191512Z 34014KT 03/M03 A303 RMK A01 T00271025  RH  069%=      5-min Rain = 0
KNH1 191513Z 34014KT 03/M03 A303 RMK A01 T00271026  RH  068%=      5-min Rain = 0
KNH1 191514Z 34013KT 03/M03 A303 RMK A01 T00281027  RH  067%=      5-min Rain = 0
KNH1 191515Z 34013KT 03/M03 A303 RMK A01 T00291026  RH  067%=      5-min Rain = 0
KNH1 191516Z 34014KT 03/M03 A303 RMK A01 T00301026  RH  067%=      5-min Rain = 0
KNH1 191517Z 34013KT 03/M03 A303 RMK A01 T00301026  RH  067%=      5-min Rain = 0
KNH1 191518Z 34013G20KT 03/M03 A303 RMK A01 T00311025  RH  067%=      5-min Rain = 0
KNH1 191519Z 34015KT 03/M03 A303 RMK A01 T00321025  RH  066%=      5-min Rain = 0
KNH1 191520Z 34016KT 03/M03 A3031 RMK A01 T00331025  RH  066%=      5-min Rain = 0
KNH1 191521Z 34013KT 03/M03 A3031 RMK A01 T00331026  RH  065%=      5-min Rain = 0
KNH1 191522Z 34015KT 03/M03 A3031 RMK A01 T00341025  RH  065%=      5-min Rain = 0
KNH1 191523Z 34016KT 03/M03 A3031 RMK A01 T00341026  RH  065%=      5-min Rain = 0
KNH1 191524Z 34017KT 04/M03 A3031 RMK A01 T00351027  RH  064%=      5-min Rain = 0
KNH1 191525Z 34015G22KT 04/M03 A3031 RMK A01 T00361028  RH  063%=      5-min Rain = 0
KNH1 191526Z 34017KT 04/M03 A3031 RMK A01 T00361028  RH  063%=      5-min Rain = 0
KNH1 191527Z 34018G25KT 04/M03 A3031 RMK A01 T00371028  RH  063%=      5-min Rain = 0
KNH1 191528Z 34017KT 04/M03 A3031 RMK A01 T00371028  RH  062%=      5-min Rain = 0
KNH1 191529Z 34017KT 04/M03 A3031 RMK A01 T00381028  RH  062%=      5-min Rain = 0
KNH1 191530Z 34017G22KT 04/M03 A3031 RMK A01 T00381027  RH  062%=      5-min Rain = 0
KNH1 191531Z 34019KT 04/M03 A3031 RMK A01 T00391028  RH  062%=      5-min Rain = 0
KNH1 191532Z 34016KT 04/M03 A3031 RMK A01 T00391029  RH  061%=      5-min Rain = 0
KNH1 191533Z 34017KT 04/M03 A3031 RMK A01 T00391028  RH  061%=      5-min Rain = 0
KNH1 191534Z 35017KT 04/M03 A3031 RMK A01 T00401028  RH  061%=      5-min Rain = 0
KNH1 191535Z 34018KT 04/M03 A3031 RMK A01 T00411028  RH  061%=      5-min Rain = 0
KNH1 191536Z 34018KT 04/M03 A3031 RMK A01 T00421029  RH  060%=      5-min Rain = 0
KNH1 191537Z 35017KT 04/M03 A3031 RMK A01 T00421029  RH  060%=      5-min Rain = 0
KNH1 191538Z 35018KT 04/M03 A3031 RMK A01 T00421028  RH  060%=      5-min Rain = 0
KNH1 191539Z 35019KT 04/M03 A3031 RMK A01 T00431029  RH  060%=      5-min Rain = 0
KNH1 191540Z 35017G23KT 04/M03 A3031 RMK A01 T00441029  RH  059%=      5-min Rain = 0
KNH1 191541Z 35016KT 04/M03 A3031 RMK A01 T00441028  RH  059%=      5-min Rain = 0
KNH1 191542Z 35017G22KT 05/M03 A3031 RMK A01 T00451028  RH  059%=      5-min Rain = 0
KNH1 191543Z 34015G22KT 05/M03 A3031 RMK A01 T00451028  RH  059%=      5-min Rain = 0
KNH1 191544Z 35017KT 05/M03 A3031 RMK A01 T00461028  RH  059%=      5-min Rain = 0
KNH1 191545Z 34018G23KT 05/M03 A3031 RMK A01 T00461028  RH  059%=      5-min Rain = 0
KNH1 191546Z 34018KT 05/M03 A3031 RMK A01 T00461029  RH  058%=      5-min Rain = 0
KNH1 191547Z 34015KT 05/M03 A3031 RMK A01 T00461029  RH  059%=      5-min Rain = 0
KNH1 191548Z 34015G20KT 05/M03 A3032 RMK A01 T00471027  RH  059%=      5-min Rain = 0
KNH1 191549Z 34019KT 05/M03 A3032 RMK A01 T00471029  RH  058%=      5-min Rain = 0
KNH1 191550Z 34017KT 05/M03 A3032 RMK A01 T00471030  RH  058%=      5-min Rain = 0
KNH1 191551Z 35014G19KT 05/M03 A3032 RMK A01 T00471029  RH  058%=      5-min Rain = 0
KNH1 191552Z 34015KT 05/M03 A3032 RMK A01 T00481028  RH  058%=      5-min Rain = 0
KNH1 191553Z 34015KT 05/M03 A3032 RMK A01 T00501027  RH  057%=      5-min Rain = 0
KNH1 191554Z 35014G20KT 05/M03 A3032 RMK A01 T00501028  RH  057%=      5-min Rain = 0
KNH1 191555Z 35016KT 05/M03 A3032 RMK A01 T00521026  RH  057%=      5-min Rain = 0
KNH1 191556Z 34016KT 05/M03 A3032 RMK A01 T00521028  RH  056%=      5-min Rain = 0
KNH1 191557Z 34014KT 05/M03 A3032 RMK A01 T00521027  RH  056%=      5-min Rain = 0
KNH1 191558Z 35014KT 05/M03 A3032 RMK A01 T00531027  RH  056%=      5-min Rain = 0
KNH1 191559Z 35017KT 05/M03 A3032 RMK A01 T00531028  RH  056%=      5-min Rain = 0
KNH1 191600Z 35015KT 05/M03 A3032 RMK A01 T00521027  RH  056%=      5-min Rain = 0
KNH1 191601Z 34017KT 05/M03 A3032 RMK A01 T00531028  RH  056%=      5-min Rain = 0
KNH1 191602Z 35018KT 05/M03 A3032 RMK A01 T00521028  RH  056%=      5-min Rain = 0
KNH1 191603Z 35016KT 05/M03 A3032 RMK A01 T00521028  RH  056%=      5-min Rain = 0
KNH1 191604Z 35017KT 05/M03 A3032 RMK A01 T00531028  RH  056%=      5-min Rain = 0
KNH1 191605Z 34020KT 05/M03 A3032 RMK A01 T00531029  RH  056%=      5-min Rain = 0
KNH1 191606Z 00014G20KT 05/M03 A3032 RMK A01 T00531029  RH  055%=      5-min Rain = 0
KNH1 191607Z 34018KT 05/M03 A3032 RMK A01 T00541029  RH  055%=      5-min Rain = 0
KNH1 191608Z 34017KT 05/M03 A3032 RMK A01 T00541030  RH  055%=      5-min Rain = 0
KNH1 191609Z 36017KT 06/M03 A3032 RMK A01 T00551030  RH  055%=      5-min Rain = 0
KNH1 191610Z 35014G20KT 06/M03 A3032 RMK A01 T00551029  RH  055%=      5-min Rain = 0
KNH1 191611Z 35015KT 06/M03 A3032 RMK A01 T00561028  RH  055%=      5-min Rain = 0
KNH1 191612Z 36016KT 06/M03 A3032 RMK A01 T00581027  RH  055%=      5-min Rain = 0
KNH1 191613Z 36014G19KT 06/M03 A3032 RMK A01 T00581028  RH  054%=      5-min Rain = 0
KNH1 191614Z 00016KT 06/M03 A3032 RMK A01 T00571028  RH  054%=      5-min Rain = 0
KNH1 191615Z 36018KT 06/M03 A3032 RMK A01 T00571030  RH  054%=      5-min Rain = 0
KNH1 191616Z 00017G23KT 06/M03 A3032 RMK A01 T00571029  RH  054%=      5-min Rain = 0
KNH1 191617Z 36016G21KT 06/M03 A3032 RMK A01 T00581030  RH  053%=      5-min Rain = 0
KNH1 191618Z 00015G20KT 06/M03 A3032 RMK A01 T00581032  RH  052%=      5-min Rain = 0
KNH1 191619Z 35018KT 06/M03 A3032 RMK A01 T00571030  RH  053%=      5-min Rain = 0
KNH1 191620Z 35019KT 06/M03 A3032 RMK A01 T00571030  RH  053%=      5-min Rain = 0
KNH1 191621Z 35016G21KT 06/M03 A3032 RMK A01 T00581030  RH  053%=      5-min Rain = 0
KNH1 191622Z 35016KT 06/M03 A3032 RMK A01 T00591028  RH  054%=      5-min Rain = 0
KNH1 191623Z 36018KT 06/M03 A3032 RMK A01 T00601029  RH  053%=      5-min Rain = 0
KNH1 191624Z 35019KT 06/M03 A3032 RMK A01 T00601031  RH  052%=      5-min Rain = 0
KNH1 191625Z 36018KT 06/M03 A3032 RMK A01 T00591032  RH  052%=      5-min Rain = 0
KNH1 191626Z 00017G22KT 06/M03 A3032 RMK A01 T00591032  RH  052%=      5-min Rain = 0
KNH1 191627Z 35017KT 06/M03 A3032 RMK A01 T00601031  RH  052%=      5-min Rain = 0
KNH1 191628Z 01015G20KT 06/M03 A3032 RMK A01 T00601031  RH  052%=      5-min Rain = 0
KNH1 191629Z 36014KT 06/M03 A3032 RMK A01 T00601031  RH  052%=      5-min Rain = 0
KNH1 191630Z 00016KT 06/M03 A3032 RMK A01 T00611028  RH  053%=      5-min Rain = 0
KNH1 191631Z 35018KT 06/M03 A3032 RMK A01 T00631028  RH  052%=      5-min Rain = 0
KNH1 191632Z 36017KT 06/M03 A3033 RMK A01 T00641030  RH  051%=      5-min Rain = 0
KNH1 191633Z 35019G24KT 06/M03 A3033 RMK A01 T00641030  RH  051%=      5-min Rain = 0
KNH1 191634Z 36017KT 06/M03 A3032 RMK A01 T00641031  RH  051%=      5-min Rain = 0
KNH1 191635Z 36019KT 07/M03 A3033 RMK A01 T00651029  RH  051%=      5-min Rain = 0
KNH1 191636Z 35016KT 07/M03 A3033 RMK A01 T00651031  RH  050%=      5-min Rain = 0
KNH1 191637Z 36018KT 07/M03 A3033 RMK A01 T00651030  RH  051%=      5-min Rain = 0
KNH1 191638Z 36017KT 07/M03 A3033 RMK A01 T00651030  RH  051%=      5-min Rain = 0
KNH1 191639Z 35018KT 07/M03 A3033 RMK A01 T00651029  RH  051%=      5-min Rain = 0
KNH1 191640Z 36017KT 07/M03 A3033 RMK A01 T00651029  RH  051%=      5-min Rain = 0
KNH1 191641Z 00016KT 07/M03 A3033 RMK A01 T00661029  RH  051%=      5-min Rain = 0
KNH1 191642Z 36017G24KT 07/M03 A3033 RMK A01 T00651032  RH  050%=      5-min Rain = 0
KNH1 191643Z 00015G20KT 07/M03 A3033 RMK A01 T00651029  RH  051%=      5-min Rain = 0
KNH1 191644Z 00014KT 07/M03 A3033 RMK A01 T00661030  RH  050%=      5-min Rain = 0
KNH1 191645Z 36016KT 07/M03 A3033 RMK A01 T00661029  RH  051%=      5-min Rain = 0
KNH1 191646Z 00015G20KT 07/M03 A3033 RMK A01 T00671029  RH  051%=      5-min Rain = 0
KNH1 191647Z 36015KT 07/M03 A3033 RMK A01 T00671030  RH  050%=      5-min Rain = 0
KNH1 191648Z 00015KT 07/M03 A3033 RMK A01 T00671029  RH  050%=      5-min Rain = 0
KNH1 191649Z 36015KT 07/M03 A3033 RMK A01 T00681029  RH  050%=      5-min Rain = 0
KNH1 191650Z 36015KT 07/M03 A3033 RMK A01 T00691029  RH  050%=      5-min Rain = 0
KNH1 191651Z 35017KT 07/M03 A3033 RMK A01 T00701030  RH  049%=      5-min Rain = 0
KNH1 191652Z 36016KT 07/M03 A3033 RMK A01 T00701030  RH  049%=      5-min Rain = 0
KNH1 191653Z 01014KT 07/M03 A3033 RMK A01 T00721028  RH  049%=      5-min Rain = 0
KNH1 191654Z 00012KT 07/M03 A3033 RMK A01 T00721030  RH  048%=      5-min Rain = 0
KNH1 191655Z 00013G18KT 07/M03 A3033 RMK A01 T00721027  RH  049%=      5-min Rain = 0
KNH1 191656Z 00016KT 07/M03 A3033 RMK A01 T00741030  RH  048%=      5-min Rain = 0
KNH1 191657Z 01013G18KT 07/M03 A3033 RMK A01 T00731032  RH  048%=      5-min Rain = 0
KNH1 191658Z 36016KT 07/M03 A3033 RMK A01 T00721031  RH  048%=      5-min Rain = 0
KNH1 191659Z 01017KT 07/M03 A3033 RMK A01 T00731030  RH  048%=      5-min Rain = 0
KNH1 191700Z 01011KT 07/M03 A3033 RMK A01 T00711031  RH  048%=      5-min Rain = 0
KNH1 191701Z 01014KT 07/M03 A3033 RMK A01 T00711030  RH  049%=      5-min Rain = 0
KNH1 191702Z 36014KT 07/M03 A3033 RMK A01 T00721028  RH  049%=      5-min Rain = 0
KNH1 191703Z 01015G21KT 07/M03 A3033 RMK A01 T00731032  RH  047%=      5-min Rain = 0
KNH1 191704Z 36017KT 07/M03 A3033 RMK A01 T00731032  RH  047%=      5-min Rain = 0
KNH1 191705Z 00015KT 07/M03 A3033 RMK A01 T00741032  RH  047%=      5-min Rain = 0
KNH1 191706Z 00014KT 08/M03 A3033 RMK A01 T00751032  RH  047%=      5-min Rain = 0
KNH1 191707Z 00015G20KT 08/M03 A3033 RMK A01 T00751031  RH  047%=      5-min Rain = 0
KNH1 191708Z 35016KT 07/M03 A3033 RMK A01 T00741031  RH  047%=      5-min Rain = 0
KNH1 191709Z 35018KT 08/M03 A3033 RMK A01 T00751030  RH  047%=      5-min Rain = 0
KNH1 191710Z 35017KT 08/M03 A3033 RMK A01 T00751032  RH  047%=      5-min Rain = 0
KNH1 191711Z 00015G20KT 08/M03 A3033 RMK A01 T00751031  RH  047%=      5-min Rain = 0
KNH1 191712Z 36016KT 08/M03 A3033 RMK A01 T00761031  RH  047%=      5-min Rain = 0
KNH1 191713Z 36014KT 08/M03 A3033 RMK A01 T00771031  RH  046%=      5-min Rain = 0
KNH1 191714Z 35017KT 08/M03 A3033 RMK A01 T00771030  RH  046%=      5-min Rain = 0
KNH1 191715Z 35016KT 08/M03 A3033 RMK A01 T00781030  RH  046%=      5-min Rain = 0
KNH1 191716Z 00013KT 08/M03 A3033 RMK A01 T00781030  RH  046%=      5-min Rain = 0
KNH1 191717Z 35014G20KT 08/M03 A3033 RMK A01 T00791030  RH  046%=      5-min Rain = 0
KNH1 191718Z 01015KT 08/M03 A3033 RMK A01 T00801030  RH  046%=      5-min Rain = 0
KNH1 191719Z 01011KT 08/M03 A3033 RMK A01 T00791033  RH  045%=      5-min Rain = 0
KNH1 191720Z 00013G18KT 08/M03 A3033 RMK A01 T00791031  RH  046%=      5-min Rain = 0
KNH1 191721Z 01014G20KT 08/M03 A3033 RMK A01 T00791032  RH  045%=      5-min Rain = 0
KNH1 191722Z 36016KT 08/M03 A3033 RMK A01 T00781034  RH  045%=      5-min Rain = 0
KNH1 191723Z 36013KT 08/M03 A3033 RMK A01 T00781032  RH  046%=      5-min Rain = 0
KNH1 191724Z 35015KT 08/M03 A3033 RMK A01 T00791030  RH  046%=      5-min Rain = 0
KNH1 191725Z 34014KT 08/M03 A3033 RMK A01 T00801030  RH  046%=      5-min Rain = 0
KNH1 191726Z 35015KT 08/M03 A3033 RMK A01 T00811031  RH  045%=      5-min Rain = 0
KNH1 191727Z 35014KT 08/M03 A3033 RMK A01 T00801030  RH  046%=      5-min Rain = 0
KNH1 191728Z 35014G19KT 08/M03 A3033 RMK A01 T00821027  RH  046%=      5-min Rain = 0
KNH1 191729Z 35014G19KT 09/M03 A3033 RMK A01 T00851027  RH  045%=      5-min Rain = 0
KNH1 191730Z 36011KT 09/M03 A3033 RMK A01 T00861028  RH  045%=      5-min Rain = 0
KNH1 191731Z 36013KT 08/M03 A3033 RMK A01 T00841031  RH  044%=      5-min Rain = 0
KNH1 191732Z 34015KT 08/M03 A3033 RMK A01 T00821030  RH  045%=      5-min Rain = 0
KNH1 191733Z 35012KT 08/M03 A3033 RMK A01 T00831028  RH  045%=      5-min Rain = 0
KNH1 191734Z 36015KT 09/M03 A3033 RMK A01 T00871028  RH  044%=      5-min Rain = 0
KNH1 191735Z 36015G20KT 09/M03 A3033 RMK A01 T00861032  RH  043%=      5-min Rain = 0
KNH1 191736Z 35016KT 08/M03 A3033 RMK A01 T00841033  RH  043%=      5-min Rain = 0
KNH1 191737Z 35013KT 08/M03 A3033 RMK A01 T00841032  RH  044%=      5-min Rain = 0
KNH1 191738Z 35011KT 08/M03 A3033 RMK A01 T00841031  RH  044%=      5-min Rain = 0
KNH1 191739Z 36012KT 09/M03 A3033 RMK A01 T00851029  RH  044%=      5-min Rain = 0
KNH1 191740Z 35015G20KT 09/M03 A3033 RMK A01 T00871029  RH  044%=      5-min Rain = 0
KNH1 191741Z 01014G19KT 09/M03 A3033 RMK A01 T00871029  RH  044%=      5-min Rain = 0
KNH1 191742Z 35014KT 09/M03 A3033 RMK A01 T00861031  RH  044%=      5-min Rain = 0
KNH1 191743Z 00014KT 09/M03 A3033 RMK A01 T00851031  RH  044%=      5-min Rain = 0
KNH1 191744Z 00014KT 08/M03 A3033 RMK A01 T00841031  RH  044%=      5-min Rain = 0
KNH1 191745Z 35013KT 09/M03 A3033 RMK A01 T00851030  RH  044%=      5-min Rain = 0
KNH1 191746Z 35017KT 09/M03 A3033 RMK A01 T00861030  RH  044%=      5-min Rain = 0
KNH1 191747Z 36016G21KT 09/M03 A3034 RMK A01 T00851031  RH  044%=      5-min Rain = 0
KNH1 191748Z 36018KT 09/M03 A3034 RMK A01 T00851031  RH  044%=      5-min Rain = 0
KNH1 191749Z 36017KT 08/M03 A3034 RMK A01 T00841032  RH  044%=      5-min Rain = 0
KNH1 191750Z 35017KT 08/M03 A3034 RMK A01 T00831032  RH  044%=      5-min Rain = 0
KNH1 191751Z 35016KT 08/M03 A3034 RMK A01 T00831032  RH  044%=      5-min Rain = 0
KNH1 191752Z 35014KT 08/M03 A3034 RMK A01 T00841030  RH  044%=      5-min Rain = 0
KNH1 191753Z 34014KT 09/M03 A3034 RMK A01 T00851031  RH  044%=      5-min Rain = 0
KNH1 191754Z 35013KT 08/M03 A3034 RMK A01 T00841031  RH  044%=      5-min Rain = 0
KNH1 191755Z 35015KT 09/M03 A3034 RMK A01 T00851029  RH  045%=      5-min Rain = 0
KNH1 191756Z 35013KT 09/M03 A3034 RMK A01 T00861029  RH  044%=      5-min Rain = 0
KNH1 191757Z 36015KT 09/M03 A3034 RMK A01 T00871029  RH  044%=      5-min Rain = 0
KNH1 191758Z 36012KT 09/M03 A3034 RMK A01 T00871028  RH  044%=      5-min Rain = 0
KNH1 191759Z 36014KT 09/M03 A3034 RMK A01 T00881028  RH  044%=      5-min Rain = 0
KNH1 191800Z 35016KT 09/M03 A3034 RMK A01 T00891026  RH  044%=      5-min Rain = 0
KNH1 191801Z 36016KT 09/M03 A3034 RMK A01 T00901029  RH  043%=      5-min Rain = 0
KNH1 191802Z 36015KT 09/M03 A3034 RMK A01 T00891030  RH  043%=      5-min Rain = 0
KNH1 191803Z 00012KT 09/M03 A3034 RMK A01 T00881030  RH  043%=      5-min Rain = 0
KNH1 191804Z 35014KT 09/M03 A3034 RMK A01 T00881027  RH  044%=      5-min Rain = 0
KNH1 191805Z 36012KT 09/M03 A3034 RMK A01 T00901025  RH  044%=      5-min Rain = 0
KNH1 191806Z 36015KT 09/M03 A3034 RMK A01 T00921026  RH  043%=      5-min Rain = 0
KNH1 191807Z 00015G20KT 09/M03 A3034 RMK A01 T00891031  RH  043%=      5-min Rain = 0
KNH1 191808Z 00012G17KT 09/M03 A3034 RMK A01 T00861030  RH  044%=      5-min Rain = 0
KNH1 191809Z 35016G22KT 09/M03 A3034 RMK A01 T00871028  RH  044%=      5-min Rain = 0
KNH1 191810Z 35017KT 09/M03 A3034 RMK A01 T00881029  RH  044%=      5-min Rain = 0
KNH1 191811Z 35019KT 09/M03 A3034 RMK A01 T00891029  RH  043%=      5-min Rain = 0
KNH1 191812Z 35017KT 09/M03 A3034 RMK A01 T00881029  RH  043%=      5-min Rain = 0
KNH1 191813Z 35014KT 09/M03 A3034 RMK A01 T00881029  RH  044%=      5-min Rain = 0
KNH1 191814Z 36015KT 09/M03 A3034 RMK A01 T00891027  RH  044%=      5-min Rain = 0
KNH1 191815Z 36014KT 09/M03 A3034 RMK A01 T00901027  RH  044%=      5-min Rain = 0
KNH1 191816Z 00013KT 09/M03 A3033 RMK A01 T00911027  RH  043%=      5-min Rain = 0
KNH1 191817Z 36012KT 09/M03 A3033 RMK A01 T00901028  RH  043%=      5-min Rain = 0
KNH1 191818Z 36012KT 09/M03 A3033 RMK A01 T00911027  RH  043%=      5-min Rain = 0
KNH1 191819Z 02013KT 09/M03 A3033 RMK A01 T00901028  RH  043%=      5-min Rain = 0
KNH1 191820Z 00011KT 09/M03 A3033 RMK A01 T00891027  RH  044%=      5-min Rain = 0
KNH1 191821Z 35012KT 09/M03 A3033 RMK A01 T00901025  RH  044%=      5-min Rain = 0
KNH1 191822Z 36013KT 09/M03 A3033 RMK A01 T00911026  RH  044%=      5-min Rain = 0
KNH1 191823Z 35011KT 09/M03 A3033 RMK A01 T00901026  RH  044%=      5-min Rain = 0
KNH1 191824Z 35014KT 09/M03 A3033 RMK A01 T00901025  RH  044%=      5-min Rain = 0
KNH1 191825Z 35012KT 09/M03 A3033 RMK A01 T00911025  RH  044%=      5-min Rain = 0
KNH1 191826Z 35011KT 09/M03 A3033 RMK A01 T00901025  RH  044%=      5-min Rain = 0
KNH1 191827Z 35012KT 09/M03 A3032 RMK A01 T00911025  RH  044%=      5-min Rain = 0
KNH1 191828Z 01010KT 09/M02 A3032 RMK A01 T00921024  RH  044%=      5-min Rain = 0
KNH1 191829Z 00011KT 09/M02 A3032 RMK A01 T00931024  RH  044%=      5-min Rain = 0
KNH1 191830Z 00010KT 09/M02 A3032 RMK A01 T00931024  RH  044%=      5-min Rain = 0
KNH1 191831Z 02012KT 09/M02 A3032 RMK A01 T00931024  RH  044%=      5-min Rain = 0
KNH1 191832Z 00015KT 09/M03 A3032 RMK A01 T00931025  RH  044%=      5-min Rain = 0
KNH1 191833Z 00014KT 09/M03 A3033 RMK A01 T00921026  RH  044%=      5-min Rain = 0
KNH1 191834Z 00013KT 09/M03 A3032 RMK A01 T00911025  RH  044%=      5-min Rain = 0
KNH1 191835Z 36015KT 09/M03 A3032 RMK A01 T00921026  RH  043%=      5-min Rain = 0
KNH1 191836Z 35015KT 09/M03 A3033 RMK A01 T00911025  RH  044%=      5-min Rain = 0
KNH1 191837Z 35014G20KT 09/M03 A3033 RMK A01 T00911025  RH  044%=      5-min Rain = 0
KNH1 191838Z 35013KT 09/M03 A3033 RMK A01 T00911025  RH  044%=      5-min Rain = 0
KNH1 191839Z 35014KT 09/M02 A3033 RMK A01 T00921024  RH  044%=      5-min Rain = 0
KNH1 191840Z 35015KT 09/M03 A3033 RMK A01 T00931025  RH  044%=      5-min Rain = 0
KNH1 191841Z 35011KT 09/M02 A3033 RMK A01 T00941023  RH  044%=      5-min Rain = 0
KNH1 191842Z 34014KT 10/M02 A3033 RMK A01 T00961024  RH  043%=      5-min Rain = 0
KNH1 191843Z 34013KT 09/M03 A3033 RMK A01 T00941026  RH  043%=      5-min Rain = 0
KNH1 191844Z 34015KT 09/M03 A3033 RMK A01 T00941025  RH  043%=      5-min Rain = 0
KNH1 191845Z 33012KT 09/M03 A3032 RMK A01 T00931027  RH  043%=      5-min Rain = 0
KNH1 191846Z 34011KT 09/M03 A3032 RMK A01 T00921026  RH  043%=      5-min Rain = 0
KNH1 191847Z 35016KT 09/M02 A3032 RMK A01 T00931023  RH  044%=      5-min Rain = 0
KNH1 191848Z 34013KT 10/M02 A3032 RMK A01 T00951023  RH  043%=      5-min Rain = 0
KNH1 191849Z 34014KT 10/M02 A3032 RMK A01 T00961024  RH  043%=      5-min Rain = 0
KNH1 191850Z 35013KT 10/M02 A3032 RMK A01 T00961024  RH  043%=      5-min Rain = 0
KNH1 191851Z 35014KT 10/M02 A3032 RMK A01 T00971022  RH  043%=      5-min Rain = 0
KNH1 191852Z 35011KT 10/M02 A3032 RMK A01 T00961024  RH  043%=      5-min Rain = 0
KNH1 191853Z 36011KT 10/M02 A3032 RMK A01 T00961023  RH  043%=      5-min Rain = 0
KNH1 191854Z 01011KT 10/M02 A3032 RMK A01 T00971024  RH  043%=      5-min Rain = 0
KNH1 191855Z 00012KT 10/M03 A3032 RMK A01 T00961026  RH  042%=      5-min Rain = 0
KNH1 191856Z 36012KT 10/M02 A3032 RMK A01 T00961024  RH  043%=      5-min Rain = 0
KNH1 191857Z 00009KT 10/M02 A3032 RMK A01 T00961023  RH  043%=      5-min Rain = 0
KNH1 191858Z 02009KT 10/M02 A3032 RMK A01 T00981022  RH  043%=      5-min Rain = 0
KNH1 191859Z 36008G16KT 10/M02 A3032 RMK A01 T00981021  RH  043%=      5-min Rain = 0
KNH1 191900Z 34014KT 10/M02 A3032 RMK A01 T00991022  RH  043%=      5-min Rain = 0
KNH1 191901Z 35016G21KT 10/M02 A3032 RMK A01 T01001024  RH  042%=      5-min Rain = 0
KNH1 191902Z 36014KT 10/M03 A3032 RMK A01 T01001026  RH  041%=      5-min Rain = 0
KNH1 191903Z 34014KT 10/M03 A3032 RMK A01 T00991026  RH  042%=      5-min Rain = 0
KNH1 191904Z 36015KT 10/M03 A3032 RMK A01 T01001026  RH  041%=      5-min Rain = 0
KNH1 191905Z 01015KT 10/M03 A3032 RMK A01 T01001026  RH  041%=      5-min Rain = 0
KNH1 191906Z 02014KT 10/M03 A3032 RMK A01 T00981029  RH  041%=      5-min Rain = 0
KNH1 191907Z 01012KT 10/M03 A3032 RMK A01 T00961027  RH  042%=      5-min Rain = 0
KNH1 191908Z 02013KT 10/M03 A3032 RMK A01 T00951027  RH  042%=      5-min Rain = 0
KNH1 191909Z 01011KT 10/M03 A3031 RMK A01 T00951027  RH  042%=      5-min Rain = 0
KNH1 191910Z 02010KT 10/M02 A3032 RMK A01 T00961024  RH  043%=      5-min Rain = 0
KNH1 191911Z 01008KT 10/M02 A3031 RMK A01 T00991022  RH  042%=      5-min Rain = 0
KNH1 191912Z 35012KT 10/M02 A3032 RMK A01 T01021022  RH  042%=      5-min Rain = 0
KNH1 191913Z 34013KT 10/M02 A3032 RMK A01 T01031023  RH  041%=      5-min Rain = 0
KNH1 191914Z 34015KT 10/M03 A3031 RMK A01 T01041025  RH  040%=      5-min Rain = 0
KNH1 191915Z 34013KT 10/M03 A3031 RMK A01 T01041026  RH  040%=      5-min Rain = 0
KNH1 191916Z 35015KT 10/M03 A3031 RMK A01 T01041025  RH  040%=      5-min Rain = 0
KNH1 191917Z 33014G19KT 10/M03 A3031 RMK A01 T01041027  RH  040%=      5-min Rain = 0
KNH1 191918Z 34010KT 10/M03 A3031 RMK A01 T01011029  RH  040%=      5-min Rain = 0
KNH1 191919Z 35012KT 10/M03 A3031 RMK A01 T01001027  RH  041%=      5-min Rain = 0
KNH1 191920Z 00012KT 10/M03 A3031 RMK A01 T01011025  RH  041%=      5-min Rain = 0
KNH1 191921Z 01011KT 10/M03 A3031 RMK A01 T01011026  RH  041%=      5-min Rain = 0
KNH1 191922Z 00012G17KT 10/M03 A3031 RMK A01 T01011026  RH  041%=      5-min Rain = 0
KNH1 191923Z 36016KT 10/M03 A3031 RMK A01 T01031025  RH  041%=      5-min Rain = 0
KNH1 191924Z 36012KT 10/M03 A3031 RMK A01 T01041025  RH  040%=      5-min Rain = 0
KNH1 191925Z 35015G20KT 10/M03 A3031 RMK A01 T01041025  RH  040%=      5-min Rain = 0
KNH1 191926Z 35011KT 10/M03 A3031 RMK A01 T01041026  RH  040%=      5-min Rain = 0
KNH1 191927Z 34010KT 11/M02 A3031 RMK A01 T01051024  RH  040%=      5-min Rain = 0
KNH1 191928Z 35013KT 11/M02 A3031 RMK A01 T01071024  RH  040%=      5-min Rain = 0
KNH1 191929Z 35014KT 11/M03 A3031 RMK A01 T01061026  RH  040%=      5-min Rain = 0
KNH1 191930Z 35011KT 10/M03 A3031 RMK A01 T01041026  RH  040%=      5-min Rain = 0
KNH1 191931Z 35011KT 10/M03 A3031 RMK A01 T01031026  RH  040%=      5-min Rain = 0
KNH1 191932Z 35007KT 10/M02 A3031 RMK A01 T01041024  RH  041%=      5-min Rain = 0
KNH1 191933Z 36012KT 11/M02 A3031 RMK A01 T01071023  RH  040%=      5-min Rain = 0
KNH1 191934Z 01010G15KT 11/M02 A3031 RMK A01 T01071023  RH  040%=      5-min Rain = 0
KNH1 191935Z 36011KT 11/M03 A3031 RMK A01 T01081025  RH  039%=      5-min Rain = 0
KNH1 191936Z 01012KT 11/M03 A3031 RMK A01 T01071025  RH  040%=      5-min Rain = 0
KNH1 191937Z 36013G18KT 11/M03 A3031 RMK A01 T01081025  RH  039%=      5-min Rain = 0
KNH1 191938Z 35014KT 11/M03 A3031 RMK A01 T01081026  RH  039%=      5-min Rain = 0
KNH1 191939Z 33011KT 11/M03 A3031 RMK A01 T01071026  RH  039%=      5-min Rain = 0
KNH1 191940Z 34009KT 11/M03 A3031 RMK A01 T01061027  RH  039%=      5-min Rain = 0
KNH1 191941Z 36012KT 10/M02 A3031 RMK A01 T01041024  RH  041%=      5-min Rain = 0
KNH1 191942Z 00014KT 11/M03 A303 RMK A01 T01051025  RH  040%=      5-min Rain = 0
KNH1 191943Z 01013KT 10/M03 A303 RMK A01 T01041027  RH  040%=      5-min Rain = 0
KNH1 191944Z 01010KT 10/M03 A303 RMK A01 T01021027  RH  040%=      5-min Rain = 0
KNH1 191945Z 35012KT 10/M02 A303 RMK A01 T01041023  RH  041%=      5-min Rain = 0
KNH1 191946Z 34009KT 11/M02 A303 RMK A01 T01061023  RH  040%=      5-min Rain = 0
KNH1 191947Z 35015KT 11/M03 A303 RMK A01 T01071025  RH  040%=      5-min Rain = 0
KNH1 191948Z 34015KT 11/M03 A303 RMK A01 T01081026  RH  039%=      5-min Rain = 0
KNH1 191949Z 35013KT 11/M03 A303 RMK A01 T01071027  RH  039%=      5-min Rain = 0
KNH1 191950Z 33011KT 11/M03 A303 RMK A01 T01071026  RH  039%=      5-min Rain = 0
KNH1 191951Z 34009KT 11/M03 A303 RMK A01 T01061027  RH  039%=      5-min Rain = 0
KNH1 191952Z 35010KT 11/M03 A303 RMK A01 T01051025  RH  040%=      5-min Rain = 0
KNH1 191953Z 01010KT 11/M02 A303 RMK A01 T01091021  RH  040%=      5-min Rain = 0
KNH1 191954Z 00007KT 11/M02 A303 RMK A01 T01101023  RH  040%=      5-min Rain = 0
KNH1 191955Z 00013KT 11/M02 A303 RMK A01 T01101024  RH  039%=      5-min Rain = 0
KNH1 191956Z 35014KT 11/M03 A303 RMK A01 T01101026  RH  038%=      5-min Rain = 0
KNH1 191957Z 35011KT 11/M03 A303 RMK A01 T01121025  RH  038%=      5-min Rain = 0
KNH1 191958Z 34009KT 11/M03 A303 RMK A01 T01141025  RH  038%=      5-min Rain = 0
KNH1 191959Z 36010KT 11/M03 A3029 RMK A01 T01141026  RH  037%=      5-min Rain = 0
KNH1 192000Z 35013KT 11/M03 A3029 RMK A01 T01141025  RH  038%=      5-min Rain = 0
KNH1 192001Z 34013KT 11/M03 A3029 RMK A01 T01141028  RH  037%=      5-min Rain = 0
KNH1 192002Z 35013G20KT 11/M03 A3029 RMK A01 T01131028  RH  037%=      5-min Rain = 0
KNH1 192003Z 35015KT 11/M03 A3029 RMK A01 T01121028  RH  038%=      5-min Rain = 0
KNH1 192004Z 35012KT 11/M03 A3029 RMK A01 T01111025  RH  039%=      5-min Rain = 0
KNH1 192005Z 00013KT 11/M03 A3029 RMK A01 T01121026  RH  038%=      5-min Rain = 0
KNH1 192006Z 34015KT 11/M03 A3029 RMK A01 T01121027  RH  038%=      5-min Rain = 0
KNH1 192007Z 33013KT 11/M03 A3029 RMK A01 T01111030  RH  037%=      5-min Rain = 0
KNH1 192008Z 33011KT 11/M03 A3029 RMK A01 T01101030  RH  037%=      5-min Rain = 0
KNH1 192009Z 33012KT 11/M03 A3029 RMK A01 T01101028  RH  038%=      5-min Rain = 0
KNH1 192010Z 32010KT 11/M03 A3029 RMK A01 T01101030  RH  037%=      5-min Rain = 0
KNH1 192011Z 32008KT 11/M03 A3029 RMK A01 T01091031  RH  037%=      5-min Rain = 0
KNH1 192012Z 34013G19KT 11/M03 A3029 RMK A01 T01101029  RH  037%=      5-min Rain = 0
KNH1 192013Z 36013G18KT 11/M03 A3029 RMK A01 T01121027  RH  038%=      5-min Rain = 0
KNH1 192014Z 36014G19KT 11/M03 A3029 RMK A01 T01121026  RH  038%=      5-min Rain = 0
KNH1 192015Z 35013KT 11/M03 A3028 RMK A01 T01131027  RH  037%=      5-min Rain = 0
KNH1 192016Z 35010KT 11/M03 A3028 RMK A01 T01131026  RH  038%=      5-min Rain = 0
KNH1 192017Z 35009KT 11/M03 A3028 RMK A01 T01141025  RH  038%=      5-min Rain = 0
KNH1 192018Z 36010KT 12/M03 A3028 RMK A01 T01151025  RH  037%=      5-min Rain = 0
KNH1 192019Z 34014KT 11/M03 A3028 RMK A01 T01141028  RH  037%=      5-min Rain = 0
KNH1 192020Z 34011KT 11/M03 A3028 RMK A01 T01131028  RH  037%=      5-min Rain = 0
KNH1 192021Z 34015KT 11/M03 A3028 RMK A01 T01141030  RH  036%=      5-min Rain = 0
KNH1 192022Z 33014G19KT 11/M03 A3028 RMK A01 T01141031  RH  036%=      5-min Rain = 0
KNH1 192023Z 32010KT 11/M03 A3028 RMK A01 T01121032  RH  036%=      5-min Rain = 0
KNH1 192024Z 33010G15KT 11/M03 A3028 RMK A01 T01111031  RH  037%=      5-min Rain = 0
KNH1 192025Z 34008KT 11/M03 A3028 RMK A01 T01111030  RH  037%=      5-min Rain = 0
KNH1 192026Z 34010KT 11/M03 A3028 RMK A01 T01121029  RH  037%=      5-min Rain = 0
KNH1 192027Z 34013KT 11/M03 A3028 RMK A01 T01131029  RH  037%=      5-min Rain = 0
KNH1 192028Z 35014KT 11/M03 A3028 RMK A01 T01141029  RH  037%=      5-min Rain = 0
KNH1 192029Z 34016KT 12/M03 A3028 RMK A01 T01151030  RH  036%=      5-min Rain = 0
KNH1 192030Z 35016KT 12/M03 A3028 RMK A01 T01151030  RH  036%=      5-min Rain = 0
KNH1 192031Z 00013KT 12/M03 A3028 RMK A01 T01151030  RH  036%=      5-min Rain = 0
KNH1 192032Z 36009KT 12/M03 A3028 RMK A01 T01151031  RH  036%=      5-min Rain = 0
KNH1 192033Z 01010KT 11/M03 A3028 RMK A01 T01141031  RH  036%=      5-min Rain = 0
KNH1 192034Z 34013G18KT 11/M03 A3028 RMK A01 T01141031  RH  036%=      5-min Rain = 0
KNH1 192035Z 34015KT 12/M03 A3028 RMK A01 T01151032  RH  036%=      5-min Rain = 0
KNH1 192036Z 34014KT 11/M03 A3028 RMK A01 T01141032  RH  036%=      5-min Rain = 0
KNH1 192037Z 33008KT 11/M03 A3028 RMK A01 T01131034  RH  036%=      5-min Rain = 0
KNH1 192038Z 34009KT 11/M03 A3028 RMK A01 T01111033  RH  036%=      5-min Rain = 0
KNH1 192039Z 35009KT 11/M03 A3028 RMK A01 T01121030  RH  037%=      5-min Rain = 0
KNH1 192040Z 34011G16KT 12/M03 A3028 RMK A01 T01151030  RH  036%=      5-min Rain = 0
KNH1 192041Z 34010KT 12/M03 A3028 RMK A01 T01151031  RH  036%=      5-min Rain = 0
KNH1 192042Z 35009KT 11/M03 A3028 RMK A01 T01141030  RH  036%=      5-min Rain = 0
KNH1 192043Z 01010KT 12/M03 A3027 RMK A01 T01151029  RH  036%=      5-min Rain = 0
KNH1 192044Z 01012G17KT 12/M03 A3027 RMK A01 T01161031  RH  036%=      5-min Rain = 0
KNH1 192045Z 34013KT 12/M03 A3027 RMK A01 T01161029  RH  036%=      5-min Rain = 0
KNH1 192046Z 34013KT 12/M03 A3028 RMK A01 T01181030  RH  036%=      5-min Rain = 0
KNH1 192047Z 33012KT 12/M03 A3028 RMK A01 T01171031  RH  035%=      5-min Rain = 0
KNH1 192048Z 33012KT 12/M03 A3028 RMK A01 T01151033  RH  035%=      5-min Rain = 0
KNH1 192049Z 34009KT 11/M03 A3027 RMK A01 T01131033  RH  036%=      5-min Rain = 0
KNH1 192050Z 32007KT 11/M03 A3027 RMK A01 T01121030  RH  037%=      5-min Rain = 0
KNH1 192051Z 34011G16KT 11/M03 A3027 RMK A01 T01131029  RH  037%=      5-min Rain = 0
KNH1 192052Z 35013KT 12/M03 A3027 RMK A01 T01161027  RH  037%=      5-min Rain = 0
KNH1 192053Z 36013KT 12/M03 A3027 RMK A01 T01171026  RH  037%=      5-min Rain = 0
KNH1 192054Z 34015KT 12/M03 A3027 RMK A01 T01191027  RH  036%=      5-min Rain = 0
KNH1 192055Z 34015KT 12/M03 A3027 RMK A01 T01191028  RH  036%=      5-min Rain = 0
KNH1 192056Z 33013KT 12/M03 A3027 RMK A01 T01181032  RH  035%=      5-min Rain = 0
KNH1 192057Z 34015KT 11/M03 A3027 RMK A01 T01141032  RH  036%=      5-min Rain = 0
KNH1 192058Z 34011KT 11/M03 A3027 RMK A01 T01141031  RH  036%=      5-min Rain = 0
KNH1 192059Z 34011KT 12/M03 A3027 RMK A01 T01151030  RH  036%=      5-min Rain = 0
KNH1 192100Z 34010KT 12/M03 A3027 RMK A01 T01171030  RH  036%=      5-min Rain = 0
KNH1 192101Z 34015G20KT 12/M03 A3027 RMK A01 T01171031  RH  035%=      5-min Rain = 0
KNH1 192102Z 33011KT 12/M03 A3027 RMK A01 T01151032  RH  035%=      5-min Rain = 0
KNH1 192103Z 34012KT 12/M03 A3027 RMK A01 T01151032  RH  036%=      5-min Rain = 0
KNH1 192104Z 34009KT 12/M03 A3027 RMK A01 T01151032  RH  036%=      5-min Rain = 0
KNH1 192105Z 33008KT 12/M03 A3027 RMK A01 T01151032  RH  036%=      5-min Rain = 0
KNH1 192106Z 34010G15KT 12/M03 A3027 RMK A01 T01151032  RH  036%=      5-min Rain = 0
KNH1 192107Z 34016KT 12/M03 A3027 RMK A01 T01151030  RH  036%=      5-min Rain = 0
KNH1 192108Z 34014KT 12/M03 A3027 RMK A01 T01161029  RH  036%=      5-min Rain = 0
KNH1 192109Z 34011KT 12/M03 A3027 RMK A01 T01171030  RH  036%=      5-min Rain = 0
KNH1 192110Z 34013KT 12/M03 A3027 RMK A01 T01161031  RH  035%=      5-min Rain = 0
KNH1 192111Z 33014KT 12/M03 A3027 RMK A01 T01151031  RH  036%=      5-min Rain = 0
KNH1 192112Z 33013KT 12/M03 A3027 RMK A01 T01151032  RH  036%=      5-min Rain = 0
KNH1 192113Z 33010KT 11/M03 A3027 RMK A01 T01141032  RH  036%=      5-min Rain = 0
KNH1 192114Z 34013G18KT 11/M03 A3027 RMK A01 T01141033  RH  036%=      5-min Rain = 0
KNH1 192115Z 35013KT 12/M03 A3027 RMK A01 T01151031  RH  036%=      5-min Rain = 0
KNH1 192116Z 36014KT 12/M03 A3027 RMK A01 T01171030  RH  036%=      5-min Rain = 0
KNH1 192117Z 35015KT 12/M03 A3027 RMK A01 T01181031  RH  035%=      5-min Rain = 0
KNH1 192118Z 34012KT 12/M03 A3027 RMK A01 T01191030  RH  035%=      5-min Rain = 0
KNH1 192119Z 33010KT 12/M03 A3027 RMK A01 T01191031  RH  035%=      5-min Rain = 0
KNH1 192120Z 34008KT 12/M03 A3027 RMK A01 T01181032  RH  035%=      5-min Rain = 0
KNH1 192121Z 34005KT 12/M03 A3027 RMK A01 T01181030  RH  035%=      5-min Rain = 0
KNH1 192122Z 32007KT 12/M03 A3027 RMK A01 T01181031  RH  035%=      5-min Rain = 0
KNH1 192123Z 34011G17KT 12/M03 A3027 RMK A01 T01171032  RH  035%=      5-min Rain = 0
KNH1 192124Z 35012KT 12/M03 A3027 RMK A01 T01171031  RH  036%=      5-min Rain = 0
KNH1 192125Z 35014KT 12/M03 A3027 RMK A01 T01181031  RH  035%=      5-min Rain = 0
KNH1 192126Z 34013G18KT 12/M03 A3027 RMK A01 T01181032  RH  035%=      5-min Rain = 0
KNH1 192127Z 35014KT 12/M03 A3027 RMK A01 T01181031  RH  035%=      5-min Rain = 0
KNH1 192128Z 34014KT 12/M03 A3027 RMK A01 T01191030  RH  035%=      5-min Rain = 0
KNH1 192129Z 34012KT 12/M03 A3027 RMK A01 T01191032  RH  035%=      5-min Rain = 0
KNH1 192130Z 33010KT 12/M03 A3027 RMK A01 T01181033  RH  035%=      5-min Rain = 0
KNH1 192131Z 33008KT 12/M03 A3027 RMK A01 T01171032  RH  035%=      5-min Rain = 0
KNH1 192132Z 32008G13KT 12/M03 A3027 RMK A01 T01171031  RH  035%=      5-min Rain = 0
KNH1 192133Z 32010G15KT 12/M03 A3027 RMK A01 T01161032  RH  035%=      5-min Rain = 0
KNH1 192134Z 33009KT 12/M03 A3027 RMK A01 T01151031  RH  036%=      5-min Rain = 0
KNH1 192135Z 33009KT 11/M03 A3027 RMK A01 T01141030  RH  036%=      5-min Rain = 0
KNH1 192136Z 34011KT 11/M03 A3027 RMK A01 T01141030  RH  036%=      5-min Rain = 0
KNH1 192137Z 34010KT 12/M03 A3027 RMK A01 T01161029  RH  036%=      5-min Rain = 0
KNH1 192138Z 34011KT 12/M03 A3027 RMK A01 T01171031  RH  035%=      5-min Rain = 0
KNH1 192139Z 34012KT 12/M03 A3027 RMK A01 T01181028  RH  036%=      5-min Rain = 0
KNH1 192140Z 33009KT 12/M03 A3027 RMK A01 T01191028  RH  036%=      5-min Rain = 0
KNH1 192141Z 34013KT 12/M03 A3027 RMK A01 T01181031  RH  035%=      5-min Rain = 0
KNH1 192142Z 33007KT 12/M03 A3027 RMK A01 T01151033  RH  035%=      5-min Rain = 0
KNH1 192143Z 34008KT 11/M03 A3027 RMK A01 T01141031  RH  036%=      5-min Rain = 0
KNH1 192144Z 33011KT 12/M03 A3027 RMK A01 T01151031  RH  036%=      5-min Rain = 0
KNH1 192145Z 34010KT 12/M03 A3027 RMK A01 T01151031  RH  036%=      5-min Rain = 0
KNH1 192146Z 35010KT 12/M03 A3027 RMK A01 T01161027  RH  037%=      5-min Rain = 0
KNH1 192147Z 34011KT 12/M03 A3027 RMK A01 T01181026  RH  036%=      5-min Rain = 0
KNH1 192148Z 34010KT 12/M03 A3027 RMK A01 T01191028  RH  036%=      5-min Rain = 0
KNH1 192149Z 35011KT 12/M03 A3027 RMK A01 T01191029  RH  035%=      5-min Rain = 0
KNH1 192150Z 34013KT 12/M03 A3027 RMK A01 T01191030  RH  035%=      5-min Rain = 0
KNH1 192151Z 33011KT 12/M03 A3027 RMK A01 T01171032  RH  035%=      5-min Rain = 0
KNH1 192152Z 34013KT 12/M03 A3027 RMK A01 T01161033  RH  035%=      5-min Rain = 0
KNH1 192153Z 35012KT 12/M03 A3027 RMK A01 T01161029  RH  036%=      5-min Rain = 0
KNH1 192154Z 32007KT 12/M03 A3027 RMK A01 T01181028  RH  036%=      5-min Rain = 0
KNH1 192155Z 33008KT 12/M03 A3027 RMK A01 T01191028  RH  036%=      5-min Rain = 0
KNH1 192156Z 33011KT 12/M03 A3027 RMK A01 T01191034  RH  034%=      5-min Rain = 0
KNH1 192157Z 34011KT 12/M04 A3027 RMK A01 T01171036  RH  034%=      5-min Rain = 0
KNH1 192158Z 33010KT 12/M04 A3027 RMK A01 T01161035  RH  034%=      5-min Rain = 0
KNH1 192159Z 33011G16KT 12/M04 A3027 RMK A01 T01161036  RH  034%=      5-min Rain = 0
KNH1 192200Z 32007KT 12/M04 A3027 RMK A01 T01171036  RH  034%=      5-min Rain = 0
KNH1 192201Z 33009KT 12/M03 A3027 RMK A01 T01171034  RH  035%=      5-min Rain = 0
KNH1 192202Z 34009G15KT 12/M03 A3027 RMK A01 T01161034  RH  035%=      5-min Rain = 0
KNH1 192203Z 34012KT 12/M03 A3027 RMK A01 T01171034  RH  035%=      5-min Rain = 0
KNH1 192204Z 34011KT 12/M03 A3027 RMK A01 T01181034  RH  035%=      5-min Rain = 0
KNH1 192205Z 32009G15KT 12/M03 A3027 RMK A01 T01171034  RH  035%=      5-min Rain = 0
KNH1 192206Z 33005KT 12/M03 A3027 RMK A01 T01171034  RH  035%=      5-min Rain = 0
KNH1 192207Z 33008KT 12/M03 A3027 RMK A01 T01161033  RH  035%=      5-min Rain = 0
KNH1 192208Z 34009KT 12/M03 A3027 RMK A01 T01161032  RH  035%=      5-min Rain = 0
KNH1 192209Z 34012KT 12/M03 A3027 RMK A01 T01161031  RH  036%=      5-min Rain = 0
KNH1 192210Z 35012KT 12/M03 A3027 RMK A01 T01171030  RH  036%=      5-min Rain = 0
KNH1 192211Z 35011KT 12/M03 A3027 RMK A01 T01171031  RH  035%=      5-min Rain = 0
KNH1 192212Z 00008KT 12/M03 A3027 RMK A01 T01161031  RH  036%=      5-min Rain = 0
KNH1 192213Z 00009KT 12/M03 A3027 RMK A01 T01161030  RH  036%=      5-min Rain = 0
KNH1 192214Z 36008G13KT 12/M03 A3027 RMK A01 T01161031  RH  036%=      5-min Rain = 0
KNH1 192215Z 35010KT 12/M03 A3027 RMK A01 T01171031  RH  035%=      5-min Rain = 0
KNH1 192216Z 34012KT 12/M03 A3027 RMK A01 T01181031  RH  035%=      5-min Rain = 0
KNH1 192217Z 34011KT 12/M03 A3027 RMK A01 T01181031  RH  035%=      5-min Rain = 0
KNH1 192218Z 35011KT 12/M03 A3027 RMK A01 T01181031  RH  035%=      5-min Rain = 0
KNH1 192219Z 35011KT 12/M03 A3027 RMK A01 T01171031  RH  035%=      5-min Rain = 0
KNH1 192220Z 35013KT 12/M03 A3027 RMK A01 T01171031  RH  036%=      5-min Rain = 0
KNH1 192221Z 35012KT 12/M03 A3027 RMK A01 T01161031  RH  036%=      5-min Rain = 0
KNH1 192222Z 35009KT 12/M03 A3027 RMK A01 T01171030  RH  036%=      5-min Rain = 0
KNH1 192223Z 34009KT 12/M03 A3027 RMK A01 T01171030  RH  036%=      5-min Rain = 0
KNH1 192224Z 35010KT 12/M03 A3027 RMK A01 T01171031  RH  036%=      5-min Rain = 0
KNH1 192225Z 36010KT 12/M03 A3027 RMK A01 T01171030  RH  036%=      5-min Rain = 0
KNH1 192226Z 00009KT 12/M03 A3027 RMK A01 T01161031  RH  036%=      5-min Rain = 0
KNH1 192227Z 35010KT 12/M03 A3027 RMK A01 T01161031  RH  036%=      5-min Rain = 0
KNH1 192228Z 36010KT 12/M03 A3027 RMK A01 T01161032  RH  035%=      5-min Rain = 0
KNH1 192229Z 34012KT 12/M03 A3027 RMK A01 T01161032  RH  035%=      5-min Rain = 0
KNH1 192230Z 34011KT 12/M03 A3027 RMK A01 T01161034  RH  035%=      5-min Rain = 0
KNH1 192231Z 35011KT 12/M03 A3027 RMK A01 T01151033  RH  035%=      5-min Rain = 0
KNH1 192232Z 34013KT 12/M03 A3027 RMK A01 T01161031  RH  036%=      5-min Rain = 0
KNH1 192233Z 34012KT 12/M03 A3027 RMK A01 T01161031  RH  036%=      5-min Rain = 0
KNH1 192234Z 34011KT 12/M03 A3027 RMK A01 T01161031  RH  036%=      5-min Rain = 0
KNH1 192235Z 34009KT 12/M03 A3027 RMK A01 T01151032  RH  036%=      5-min Rain = 0
KNH1 192236Z 36008KT 12/M03 A3027 RMK A01 T01151031  RH  036%=      5-min Rain = 0
KNH1 192237Z 34009KT 12/M03 A3027 RMK A01 T01151030  RH  036%=      5-min Rain = 0
KNH1 192238Z 35010KT 12/M03 A3027 RMK A01 T01161030  RH  036%=      5-min Rain = 0
KNH1 192239Z 34010KT 12/M03 A3027 RMK A01 T01171031  RH  035%=      5-min Rain = 0
KNH1 192240Z 36009KT 12/M03 A3027 RMK A01 T01161032  RH  035%=      5-min Rain = 0
KNH1 192241Z 35007KT 12/M03 A3027 RMK A01 T01161032  RH  035%=      5-min Rain = 0
KNH1 192242Z 00006KT 12/M03 A3027 RMK A01 T01151032  RH  036%=      5-min Rain = 0
KNH1 192243Z 35006KT 12/M03 A3027 RMK A01 T01151033  RH  035%=      5-min Rain = 0
KNH1 192244Z 36007KT 12/M03 A3027 RMK A01 T01151032  RH  036%=      5-min Rain = 0
KNH1 192245Z 35006G12KT 12/M03 A3027 RMK A01 T01151032  RH  036%=      5-min Rain = 0
KNH1 192246Z 35009KT 12/M03 A3027 RMK A01 T01151031  RH  036%=      5-min Rain = 0
KNH1 192247Z 36008KT 12/M03 A3027 RMK A01 T01161030  RH  036%=      5-min Rain = 0
KNH1 192248Z 35010KT 12/M03 A3027 RMK A01 T01161031  RH  036%=      5-min Rain = 0
KNH1 192249Z 35008KT 12/M03 A3027 RMK A01 T01161030  RH  036%=      5-min Rain = 0
KNH1 192250Z 35011KT 12/M03 A3027 RMK A01 T01161030  RH  036%=      5-min Rain = 0
KNH1 192251Z 35007KT 12/M03 A3027 RMK A01 T01151031  RH  036%=      5-min Rain = 0
KNH1 192252Z 35008KT 12/M03 A3027 RMK A01 T01151030  RH  036%=      5-min Rain = 0
KNH1 192253Z 00008KT 11/M03 A3027 RMK A01 T01141029  RH  037%=      5-min Rain = 0
KNH1 192254Z 00007KT 11/M03 A3027 RMK A01 T01141029  RH  036%=      5-min Rain = 0
KNH1 192255Z 00008KT 11/M03 A3027 RMK A01 T01141030  RH  036%=      5-min Rain = 0
KNH1 192256Z 36009KT 11/M03 A3027 RMK A01 T01141029  RH  037%=      5-min Rain = 0
KNH1 192257Z 36007KT 11/M03 A3027 RMK A01 T01141029  RH  037%=      5-min Rain = 0
KNH1 192258Z 01007KT 11/M03 A3027 RMK A01 T01141029  RH  037%=      5-min Rain = 0
KNH1 192259Z 01008KT 11/M03 A3027 RMK A01 T01131032  RH  036%=      5-min Rain = 0
KNH1 192300Z 01007KT 11/M03 A3027 RMK A01 T01121032  RH  036%=      5-min Rain = 0
KNH1 192301Z 33007KT 11/M03 A3027 RMK A01 T01121031  RH  037%=      5-min Rain = 0
KNH1 192302Z 33008KT 11/M03 A3027 RMK A01 T01111032  RH  037%=      5-min Rain = 0
KNH1 192303Z 34006KT 11/M03 A3027 RMK A01 T01111031  RH  037%=      5-min Rain = 0
KNH1 192304Z 33006KT 11/M03 A3027 RMK A01 T01111030  RH  037%=      5-min Rain = 0
KNH1 192305Z 33005KT 11/M03 A3027 RMK A01 T01111030  RH  037%=      5-min Rain = 0
KNH1 192306Z 35004KT 11/M03 A3027 RMK A01 T01121029  RH  037%=      5-min Rain = 0
KNH1 192307Z 35008KT 11/M03 A3027 RMK A01 T01121028  RH  037%=      5-min Rain = 0
KNH1 192308Z 35011KT 11/M03 A3027 RMK A01 T01121029  RH  037%=      5-min Rain = 0
KNH1 192309Z 00008KT 11/M03 A3027 RMK A01 T01121030  RH  037%=      5-min Rain = 0
KNH1 192310Z 01007KT 11/M03 A3027 RMK A01 T01111031  RH  037%=      5-min Rain = 0
KNH1 192311Z 01007KT 11/M03 A3027 RMK A01 T01101030  RH  037%=      5-min Rain = 0
KNH1 192312Z 01007KT 11/M03 A3027 RMK A01 T01101030  RH  038%=      5-min Rain = 0
KNH1 192313Z 35005KT 11/M03 A3027 RMK A01 T01101028  RH  038%=      5-min Rain = 0
KNH1 192314Z 36007KT 11/M03 A3027 RMK A01 T01101027  RH  038%=      5-min Rain = 0
KNH1 192315Z 36008KT 11/M03 A3027 RMK A01 T01101028  RH  038%=      5-min Rain = 0
KNH1 192316Z 01007KT 11/M03 A3027 RMK A01 T01101028  RH  038%=      5-min Rain = 0
KNH1 192317Z 36006KT 11/M03 A3027 RMK A01 T01091029  RH  038%=      5-min Rain = 0
KNH1 192318Z 01005KT 11/M03 A3027 RMK A01 T01091028  RH  038%=      5-min Rain = 0
KNH1 192319Z 01007KT 11/M03 A3027 RMK A01 T01091029  RH  038%=      5-min Rain = 0
KNH1 192320Z 00007KT 11/M03 A3027 RMK A01 T01091029  RH  038%=      5-min Rain = 0
KNH1 192321Z 01007KT 11/M03 A3027 RMK A01 T01081030  RH  038%=      5-min Rain = 0
KNH1 192322Z 01006KT 11/M03 A3027 RMK A01 T01081029  RH  038%=      5-min Rain = 0
KNH1 192323Z 01006KT 11/M03 A3027 RMK A01 T01071029  RH  038%=      5-min Rain = 0
KNH1 192324Z 01006KT 11/M03 A3027 RMK A01 T01071029  RH  038%=      5-min Rain = 0
KNH1 192325Z 01007KT 11/M03 A3027 RMK A01 T01071030  RH  038%=      5-min Rain = 0
KNH1 192326Z 02007KT 11/M03 A3027 RMK A01 T01071031  RH  038%=      5-min Rain = 0
KNH1 192327Z 01007KT 11/M03 A3027 RMK A01 T01071030  RH  038%=      5-min Rain = 0
KNH1 192328Z 01007KT 11/M03 A3026 RMK A01 T01071029  RH  039%=      5-min Rain = 0
KNH1 192329Z 01006KT 11/M03 A3026 RMK A01 T01061029  RH  039%=      5-min Rain = 0
KNH1 192330Z 36006KT 11/M03 A3026 RMK A01 T01061029  RH  039%=      5-min Rain = 0
KNH1 192331Z 01008KT 11/M03 A3026 RMK A01 T01061029  RH  039%=      5-min Rain = 0
KNH1 192332Z 02007KT 11/M03 A3026 RMK A01 T01061030  RH  038%=      5-min Rain = 0
KNH1 192333Z 01006KT 11/M03 A3026 RMK A01 T01061030  RH  038%=      5-min Rain = 0
KNH1 192334Z 00006KT 11/M03 A3026 RMK A01 T01061030  RH  039%=      5-min Rain = 0
KNH1 192335Z 01008KT 11/M03 A3026 RMK A01 T01051030  RH  039%=      5-min Rain = 0
KNH1 192336Z 01008KT 11/M03 A3026 RMK A01 T01051031  RH  039%=      5-min Rain = 0
KNH1 192337Z 01009KT 11/M03 A3026 RMK A01 T01051031  RH  039%=      5-min Rain = 0
KNH1 192338Z 01008KT 11/M03 A3026 RMK A01 T01051031  RH  038%=      5-min Rain = 0
KNH1 192339Z 01005KT 11/M03 A3026 RMK A01 T01051030  RH  039%=      5-min Rain = 0
KNH1 192340Z 02006KT 10/M03 A3026 RMK A01 T01041030  RH  039%=      5-min Rain = 0
KNH1 192341Z 01007KT 10/M03 A3026 RMK A01 T01031031  RH  039%=      5-min Rain = 0
KNH1 192342Z 01005KT 10/M03 A3026 RMK A01 T01031031  RH  039%=      5-min Rain = 0
KNH1 192343Z 00006KT 10/M03 A3027 RMK A01 T01021030  RH  039%=      5-min Rain = 0
KNH1 192344Z 00005KT 10/M03 A3027 RMK A01 T01021030  RH  039%=      5-min Rain = 0
KNH1 192345Z 00006KT 10/M03 A3027 RMK A01 T01021030  RH  039%=      5-min Rain = 0
KNH1 192346Z 00006KT 10/M03 A3027 RMK A01 T01011031  RH  039%=      5-min Rain = 0
KNH1 192347Z 36006KT 10/M03 A3027 RMK A01 T01001031  RH  039%=      5-min Rain = 0
KNH1 192348Z 36006KT 10/M03 A3027 RMK A01 T01001031  RH  040%=      5-min Rain = 0
KNH1 192349Z 36006KT 10/M03 A3027 RMK A01 T00991030  RH  040%=      5-min Rain = 0
KNH1 192350Z 00005KT 10/M03 A3027 RMK A01 T00981031  RH  040%=      5-min Rain = 0
KNH1 192351Z 00005KT 10/M03 A3027 RMK A01 T00971031  RH  040%=      5-min Rain = 0
KNH1 192352Z 00005KT 10/M03 A3027 RMK A01 T00961031  RH  041%=      5-min Rain = 0
KNH1 192353Z 00005KT 10/M03 A3027 RMK A01 T00961032  RH  041%=      5-min Rain = 0
KNH1 192354Z 01005KT 10/M03 A3027 RMK A01 T00951031  RH  041%=      5-min Rain = 0
KNH1 192355Z 01004KT 10/M03 A3027 RMK A01 T00951031  RH  041%=      5-min Rain = 0
KNH1 192356Z 00004KT 09/M03 A3027 RMK A01 T00941032  RH  041%=      5-min Rain = 0
KNH1 192357Z 01005KT 09/M03 A3027 RMK A01 T00931032  RH  041%=      5-min Rain = 0
KNH1 192358Z 00005KT 09/M03 A3027 RMK A01 T00921032  RH  041%=      5-min Rain = 0
KNH1 192359Z 01004KT 09/M03 A3027 RMK A01 T00921032  RH  042%=      5-min Rain = 0
KNH1 200000Z 01005KT 09/M03 A3027 RMK A01 T00921032  RH  042%=      5-min Rain = 0
KNH1 200001Z 01004KT 09/M03 A3027 RMK A01 T00921031  RH  042%=      5-min Rain = 0
KNH1 200002Z 01003KT 09/M03 A3027 RMK A01 T00921031  RH  042%=      5-min Rain = 0
KNH1 200003Z 02003KT 09/M03 A3027 RMK A01 T00921030  RH  042%=      5-min Rain = 0
KNH1 200004Z 03003KT 09/M03 A3027 RMK A01 T00921031  RH  042%=      5-min Rain = 0
KNH1 200005Z 03003KT 09/M03 A3027 RMK A01 T00911031  RH  042%=      5-min Rain = 0
KNH1 200006Z 02003KT 09/M03 A3027 RMK A01 T00911031  RH  042%=      5-min Rain = 0
KNH1 200007Z 03003KT 09/M03 A3027 RMK A01 T00911030  RH  042%=      5-min Rain = 0
KNH1 200008Z 04003KT 09/M03 A3027 RMK A01 T00911031  RH  042%=      5-min Rain = 0
KNH1 200009Z 04003KT 09/M03 A3027 RMK A01 T00891032  RH  042%=      5-min Rain = 0
KNH1 200010Z 04003KT 09/M03 A3027 RMK A01 T00881032  RH  043%=      5-min Rain = 0
KNH1 200011Z 04003KT 09/M03 A3027 RMK A01 T00871031  RH  043%=      5-min Rain = 0
KNH1 200012Z 04003KT 09/M03 A3027 RMK A01 T00871031  RH  043%=      5-min Rain = 0
KNH1 200013Z 04004KT 09/M03 A3027 RMK A01 T00871031  RH  043%=      5-min Rain = 0
KNH1 200014Z 04004KT 09/M03 A3027 RMK A01 T00861032  RH  043%=      5-min Rain = 0
KNH1 200015Z 05003KT 09/M03 A3027 RMK A01 T00851031  RH  044%=      5-min Rain = 0
KNH1 200016Z 05004KT 09/M03 A3027 RMK A01 T00851031  RH  044%=      5-min Rain = 0
KNH1 200017Z 03004KT 08/M03 A3027 RMK A01 T00831033  RH  044%=      5-min Rain = 0
KNH1 200018Z 04004KT 08/M03 A3027 RMK A01 T00831032  RH  044%=      5-min Rain = 0
KNH1 200019Z 04004KT 08/M03 A3027 RMK A01 T00821032  RH  044%=      5-min Rain = 0
KNH1 200020Z 04003KT 08/M03 A3027 RMK A01 T00811032  RH  045%=      5-min Rain = 0
KNH1 200021Z 03004KT 08/M03 A3027 RMK A01 T00801032  RH  045%=      5-min Rain = 0
KNH1 200022Z 04004KT 08/M03 A3027 RMK A01 T00801032  RH  045%=      5-min Rain = 0
KNH1 200023Z 04004KT 08/M03 A3027 RMK A01 T00801032  RH  045%=      5-min Rain = 0
KNH1 200024Z 04003KT 08/M03 A3027 RMK A01 T00801032  RH  045%=      5-min Rain = 0
KNH1 200025Z 04004KT 08/M03 A3027 RMK A01 T00801032  RH  045%=      5-min Rain = 0
KNH1 200026Z 04003KT 08/M03 A3027 RMK A01 T00801032  RH  045%=      5-min Rain = 0
KNH1 200027Z 04003KT 08/M03 A3027 RMK A01 T00791032  RH  045%=      5-min Rain = 0
KNH1 200028Z 04003KT 08/M03 A3027 RMK A01 T00791032  RH  045%=      5-min Rain = 0
KNH1 200029Z 04003KT 08/M03 A3027 RMK A01 T00791032  RH  045%=      5-min Rain = 0
KNH1 200030Z 04003KT 08/M03 A3027 RMK A01 T00791032  RH  045%=      5-min Rain = 0
KNH1 200031Z 04004KT 08/M03 A3027 RMK A01 T00791033  RH  045%=      5-min Rain = 0
KNH1 200032Z 05003KT 08/M03 A3027 RMK A01 T00771034  RH  046%=      5-min Rain = 0
KNH1 200033Z 06003KT 08/M03 A3027 RMK A01 T00751033  RH  046%=      5-min Rain = 0
KNH1 200034Z 06003KT 08/M03 A3027 RMK A01 T00751033  RH  046%=      5-min Rain = 0
KNH1 200035Z 05003KT 08/M03 A3027 RMK A01 T00751032  RH  047%=      5-min Rain = 0
KNH1 200036Z 06003KT 07/M03 A3027 RMK A01 T00731034  RH  047%=      5-min Rain = 0
KNH1 200037Z 05003KT 07/M03 A3027 RMK A01 T00721034  RH  047%=      5-min Rain = 0
KNH1 200038Z 06003KT 07/M03 A3027 RMK A01 T00721033  RH  047%=      5-min Rain = 0
KNH1 200039Z 05004KT 07/M03 A3027 RMK A01 T00711033  RH  047%=      5-min Rain = 0
KNH1 200040Z 06003KT 07/M03 A3027 RMK A01 T00701034  RH  047%=      5-min Rain = 0
KNH1 200041Z 06003KT 07/M03 A3027 RMK A01 T00691034  RH  048%=      5-min Rain = 0
KNH1 200042Z 06004KT 07/M03 A3027 RMK A01 T00691034  RH  048%=      5-min Rain = 0
KNH1 200043Z 06004KT 07/M03 A3027 RMK A01 T00691034  RH  048%=      5-min Rain = 0
KNH1 200044Z 07003KT 07/M04 A3028 RMK A01 T00681035  RH  048%=      5-min Rain = 0
KNH1 200045Z 07004KT 07/M04 A3028 RMK A01 T00671035  RH  048%=      5-min Rain = 0
KNH1 200046Z 07003KT 07/M04 A3028 RMK A01 T00661035  RH  048%=      5-min Rain = 0
KNH1 200047Z 07004KT 07/M04 A3028 RMK A01 T00661036  RH  048%=      5-min Rain = 0
KNH1 200048Z 08004KT 07/M04 A3028 RMK A01 T00661036  RH  048%=      5-min Rain = 0
KNH1 200049Z 07004KT 07/M04 A3028 RMK A01 T00661036  RH  048%=      5-min Rain = 0
KNH1 200050Z 07004KT 07/M04 A3028 RMK A01 T00651036  RH  048%=      5-min Rain = 0
KNH1 200051Z 07005KT 07/M04 A3028 RMK A01 T00651037  RH  048%=      5-min Rain = 0
KNH1 200052Z 07005KT 06/M04 A3028 RMK A01 T00641037  RH  049%=      5-min Rain = 0
KNH1 200053Z 07005KT 06/M04 A3028 RMK A01 T00621037  RH  049%=      5-min Rain = 0
KNH1 200054Z 07005KT 06/M04 A3028 RMK A01 T00621037  RH  049%=      5-min Rain = 0
KNH1 200055Z 07004KT 06/M04 A3028 RMK A01 T00611037  RH  049%=      5-min Rain = 0
KNH1 200056Z 07005KT 06/M04 A3028 RMK A01 T00601037  RH  050%=      5-min Rain = 0
KNH1 200057Z 06005KT 06/M04 A3028 RMK A01 T00601037  RH  050%=      5-min Rain = 0
KNH1 200058Z 06005KT 06/M04 A3028 RMK A01 T00601037  RH  050%=      5-min Rain = 0
KNH1 200059Z 06006KT 06/M04 A3028 RMK A01 T00591037  RH  050%=      5-min Rain = 0
KNH1 200100Z 06006KT 06/M04 A3028 RMK A01 T00591037  RH  050%=      5-min Rain = 0
KNH1 200101Z 07006KT 06/M04 A3028 RMK A01 T00581038  RH  050%=      5-min Rain = 0
KNH1 200102Z 06006KT 06/M04 A3028 RMK A01 T00581038  RH  050%=      5-min Rain = 0
KNH1 200103Z 06006KT 06/M04 A3028 RMK A01 T00581037  RH  050%=      5-min Rain = 0
KNH1 200104Z 06006KT 06/M04 A3028 RMK A01 T00571038  RH  050%=      5-min Rain = 0
KNH1 200105Z 06006KT 06/M04 A3028 RMK A01 T00571038  RH  051%=      5-min Rain = 0
KNH1 200106Z 06006KT 06/M04 A3028 RMK A01 T00571037  RH  051%=      5-min Rain = 0
KNH1 200107Z 06006KT 06/M04 A3028 RMK A01 T00561038  RH  051%=      5-min Rain = 0
KNH1 200108Z 06006KT 06/M04 A3028 RMK A01 T00551037  RH  051%=      5-min Rain = 0
KNH1 200109Z 06006KT 06/M04 A3028 RMK A01 T00551037  RH  052%=      5-min Rain = 0
KNH1 200110Z 06006KT 06/M04 A3028 RMK A01 T00561036  RH  052%=      5-min Rain = 0
KNH1 200111Z 06005KT 06/M04 A3028 RMK A01 T00561036  RH  052%=      5-min Rain = 0
KNH1 200112Z 06006KT 06/M04 A3028 RMK A01 T00561036  RH  052%=      5-min Rain = 0
KNH1 200113Z 06005KT 06/M04 A3028 RMK A01 T00561035  RH  052%=      5-min Rain = 0
KNH1 200114Z 06005KT 06/M04 A3028 RMK A01 T00561035  RH  052%=      5-min Rain = 0
KNH1 200115Z 07005KT 06/M04 A3028 RMK A01 T00561036  RH  052%=      5-min Rain = 0
KNH1 200116Z 07005KT 06/M04 A3028 RMK A01 T00551036  RH  052%=      5-min Rain = 0
KNH1 200117Z 07005KT 06/M04 A3028 RMK A01 T00551036  RH  052%=      5-min Rain = 0
KNH1 200118Z 07006KT 05/M04 A3028 RMK A01 T00541036  RH  052%=      5-min Rain = 0
KNH1 200119Z 07005KT 05/M04 A3028 RMK A01 T00541036  RH  052%=      5-min Rain = 0
KNH1 200120Z 07005KT 05/M04 A3028 RMK A01 T00531037  RH  052%=      5-min Rain = 0
KNH1 200121Z 08005KT 05/M04 A3028 RMK A01 T00511037  RH  053%=      5-min Rain = 0
KNH1 200122Z 07005KT 05/M04 A3028 RMK A01 T00501038  RH  053%=      5-min Rain = 0
KNH1 200123Z 07005KT 05/M04 A3028 RMK A01 T00491039  RH  053%=      5-min Rain = 0
KNH1 200124Z 07005KT 05/M04 A3028 RMK A01 T00481039  RH  053%=      5-min Rain = 0
KNH1 200125Z 06006KT 05/M04 A3028 RMK A01 T00471039  RH  054%=      5-min Rain = 0
KNH1 200126Z 07005KT 05/M04 A3028 RMK A01 T00471038  RH  054%=      5-min Rain = 0
KNH1 200127Z 07006KT 05/M04 A3028 RMK A01 T00481038  RH  054%=      5-min Rain = 0
KNH1 200128Z 07006KT 05/M04 A3028 RMK A01 T00491038  RH  054%=      5-min Rain = 0
KNH1 200129Z 07006KT 05/M04 A3028 RMK A01 T00501037  RH  053%=      5-min Rain = 0
KNH1 200130Z 07005KT 05/M04 A3028 RMK A01 T00501037  RH  053%=      5-min Rain = 0
KNH1 200131Z 07006KT 05/M04 A3028 RMK A01 T00511037  RH  053%=      5-min Rain = 0
KNH1 200132Z 07005KT 05/M04 A3028 RMK A01 T00511037  RH  053%=      5-min Rain = 0
KNH1 200133Z 07006KT 05/M04 A3028 RMK A01 T00501037  RH  053%=      5-min Rain = 0
KNH1 200134Z 07005KT 05/M04 A3028 RMK A01 T00501037  RH  053%=      5-min Rain = 0
KNH1 200135Z 07006KT 05/M04 A3028 RMK A01 T00501037  RH  054%=      5-min Rain = 0
KNH1 200136Z 07006KT 05/M04 A3028 RMK A01 T00501037  RH  054%=      5-min Rain = 0
KNH1 200137Z 07005KT 05/M04 A3028 RMK A01 T00501037  RH  053%=      5-min Rain = 0
KNH1 200138Z 07006KT 05/M04 A3028 RMK A01 T00501037  RH  053%=      5-min Rain = 0
KNH1 200139Z 07005KT 05/M04 A3028 RMK A01 T00491037  RH  054%=      5-min Rain = 0
KNH1 200140Z 07006KT 05/M04 A3028 RMK A01 T00481038  RH  054%=      5-min Rain = 0
KNH1 200141Z 08006KT 05/M04 A3028 RMK A01 T00481037  RH  054%=      5-min Rain = 0
KNH1 200142Z 07006KT 05/M04 A3028 RMK A01 T00481037  RH  054%=      5-min Rain = 0
KNH1 200143Z 07006KT 05/M04 A3028 RMK A01 T00471037  RH  054%=      5-min Rain = 0
KNH1 200144Z 07006KT 05/M04 A3027 RMK A01 T00471037  RH  054%=      5-min Rain = 0
KNH1 200145Z 07006KT 05/M04 A3027 RMK A01 T00471037  RH  054%=      5-min Rain = 0
KNH1 200146Z 08006KT 05/M04 A3027 RMK A01 T00471037  RH  054%=      5-min Rain = 0
KNH1 200147Z 08007KT 05/M04 A3027 RMK A01 T00471037  RH  054%=      5-min Rain = 0
KNH1 200148Z 08006KT 05/M04 A3027 RMK A01 T00471037  RH  054%=      5-min Rain = 0
KNH1 200149Z 08007KT 05/M04 A3027 RMK A01 T00471037  RH  054%=      5-min Rain = 0
KNH1 200150Z 08007KT 05/M04 A3027 RMK A01 T00461038  RH  054%=      5-min Rain = 0
KNH1 200151Z 08007KT 05/M04 A3027 RMK A01 T00451039  RH  054%=      5-min Rain = 0
KNH1 200152Z 08007KT 04/M04 A3027 RMK A01 T00441039  RH  054%=      5-min Rain = 0
KNH1 200153Z 09007KT 04/M04 A3027 RMK A01 T00441039  RH  055%=      5-min Rain = 0
KNH1 200154Z 09006KT 04/M04 A3027 RMK A01 T00431039  RH  055%=      5-min Rain = 0
KNH1 200155Z 08006KT 04/M04 A3027 RMK A01 T00431039  RH  055%=      5-min Rain = 0
KNH1 200156Z 09005KT 04/M04 A3027 RMK A01 T00431039  RH  055%=      5-min Rain = 0
KNH1 200157Z 09005KT 04/M04 A3027 RMK A01 T00421040  RH  055%=      5-min Rain = 0
KNH1 200158Z 09006KT 04/M04 A3027 RMK A01 T00411040  RH  056%=      5-min Rain = 0
KNH1 200159Z 09006KT 04/M04 A3027 RMK A01 T00411040  RH  056%=      5-min Rain = 0
KNH1 200200Z 09006KT 04/M04 A3026 RMK A01 T00401041  RH  056%=      5-min Rain = 0
KNH1 200201Z 10006KT 04/M04 A3026 RMK A01 T00401041  RH  056%=      5-min Rain = 0
KNH1 200202Z 10005KT 04/M04 A3027 RMK A01 T00401041  RH  056%=      5-min Rain = 0
KNH1 200203Z 10005KT 04/M04 A3027 RMK A01 T00391041  RH  056%=      5-min Rain = 0
KNH1 200204Z 10005KT 04/M04 A3027 RMK A01 T00381041  RH  056%=      5-min Rain = 0
KNH1 200205Z 10005KT 04/M04 A3027 RMK A01 T00381041  RH  056%=      5-min Rain = 0
KNH1 200206Z 10005KT 04/M04 A3026 RMK A01 T00381041  RH  056%=      5-min Rain = 0
KNH1 200207Z 10005KT 04/M04 A3026 RMK A01 T00371041  RH  057%=      5-min Rain = 0
KNH1 200208Z 10005KT 04/M04 A3026 RMK A01 T00361042  RH  057%=      5-min Rain = 0
KNH1 200209Z 10005KT 04/M04 A3026 RMK A01 T00361042  RH  057%=      5-min Rain = 0
KNH1 200210Z 10005KT 04/M04 A3026 RMK A01 T00351042  RH  057%=      5-min Rain = 0
KNH1 200211Z 10005KT 04/M04 A3027 RMK A01 T00351042  RH  057%=      5-min Rain = 0
KNH1 200212Z 10005KT 03/M04 A3027 RMK A01 T00341043  RH  057%=      5-min Rain = 0
KNH1 200213Z 09005KT 03/M04 A3027 RMK A01 T00331043  RH  057%=      5-min Rain = 0
KNH1 200214Z 10005KT 03/M04 A3027 RMK A01 T00321044  RH  058%=      5-min Rain = 0
KNH1 200215Z 10005KT 03/M04 A3027 RMK A01 T00311044  RH  058%=      5-min Rain = 0
KNH1 200216Z 10005KT 03/M04 A3027 RMK A01 T00301044  RH  058%=      5-min Rain = 0
KNH1 200217Z 10005KT 03/M04 A3027 RMK A01 T00301044  RH  059%=      5-min Rain = 0
KNH1 200218Z 10005KT 03/M04 A3028 RMK A01 T00291044  RH  059%=      5-min Rain = 0
KNH1 200219Z 10005KT 03/M04 A3028 RMK A01 T00291044  RH  059%=      5-min Rain = 0
KNH1 200220Z 09005KT 03/M04 A3028 RMK A01 T00291044  RH  059%=      5-min Rain = 0
KNH1 200221Z 09005KT 03/M04 A3028 RMK A01 T00291044  RH  059%=      5-min Rain = 0
KNH1 200222Z 09005KT 03/M05 A3028 RMK A01 T00281045  RH  059%=      5-min Rain = 0
KNH1 200223Z 09005KT 03/M05 A3028 RMK A01 T00261045  RH  059%=      5-min Rain = 0
KNH1 200224Z 09005KT 02/M05 A3028 RMK A01 T00241046  RH  060%=      5-min Rain = 0
KNH1 200225Z 09006KT 02/M05 A3028 RMK A01 T00221046  RH  061%=      5-min Rain = 0
KNH1 200226Z 09005KT 02/M05 A3028 RMK A01 T00221046  RH  061%=      5-min Rain = 0
KNH1 200227Z 08005KT 02/M05 A3028 RMK A01 T00221045  RH  061%=      5-min Rain = 0
KNH1 200228Z 08005KT 02/M04 A3028 RMK A01 T00231044  RH  062%=      5-min Rain = 0
KNH1 200229Z 08005KT 02/M04 A3028 RMK A01 T00241043  RH  061%=      5-min Rain = 0
KNH1 200230Z 08005KT 03/M04 A3029 RMK A01 T00271042  RH  060%=      5-min Rain = 0
KNH1 200231Z 08005KT 03/M04 A3029 RMK A01 T00281042  RH  060%=      5-min Rain = 0
KNH1 200232Z 08005KT 03/M04 A3029 RMK A01 T00301042  RH  059%=      5-min Rain = 0
KNH1 200233Z 07005KT 03/M04 A3029 RMK A01 T00311043  RH  059%=      5-min Rain = 0
KNH1 200234Z 08004KT 03/M04 A3029 RMK A01 T00311043  RH  058%=      5-min Rain = 0
KNH1 200235Z 08005KT 03/M04 A3029 RMK A01 T00321043  RH  058%=      5-min Rain = 0
KNH1 200236Z 09005KT 03/M04 A3029 RMK A01 T00331043  RH  058%=      5-min Rain = 0
KNH1 200237Z 09005KT 03/M04 A3029 RMK A01 T00331043  RH  057%=      5-min Rain = 0
KNH1 200238Z 09006KT 03/M04 A3028 RMK A01 T00341043  RH  057%=      5-min Rain = 0
KNH1 200239Z 09006KT 03/M04 A3028 RMK A01 T00331044  RH  057%=      5-min Rain = 0
KNH1 200240Z 09006KT 03/M04 A3028 RMK A01 T00321044  RH  058%=      5-min Rain = 0
KNH1 200241Z 09006KT 03/M04 A3028 RMK A01 T00311044  RH  058%=      5-min Rain = 0
KNH1 200242Z 09005KT 03/M04 A3029 RMK A01 T00301044  RH  058%=      5-min Rain = 0
KNH1 200243Z 09004KT 03/M05 A3029 RMK A01 T00291045  RH  058%=      5-min Rain = 0
KNH1 200244Z 09004KT 03/M05 A303 RMK A01 T00271045  RH  059%=      5-min Rain = 0
KNH1 200245Z 10004KT 03/M05 A303 RMK A01 T00271045  RH  059%=      5-min Rain = 0
KNH1 200246Z 10004KT 03/M05 A303 RMK A01 T00261045  RH  059%=      5-min Rain = 0
KNH1 200247Z 10005KT 03/M05 A303 RMK A01 T00261045  RH  060%=      5-min Rain = 0
KNH1 200248Z 10005KT 03/M05 A303 RMK A01 T00261045  RH  060%=      5-min Rain = 0
KNH1 200249Z 10005KT 03/M04 A303 RMK A01 T00261044  RH  060%=      5-min Rain = 0
KNH1 200250Z 10004KT 03/M04 A303 RMK A01 T00261044  RH  060%=      5-min Rain = 0
KNH1 200251Z 09004KT 03/M05 A303 RMK A01 T00261045  RH  060%=      5-min Rain = 0
KNH1 200252Z 09004KT 03/M05 A303 RMK A01 T00261045  RH  060%=      5-min Rain = 0
KNH1 200253Z 09004KT 02/M05 A303 RMK A01 T00241046  RH  060%=      5-min Rain = 0
KNH1 200254Z 09004KT 02/M05 A303 RMK A01 T00231046  RH  060%=      5-min Rain = 0
KNH1 200255Z 09004KT 02/M05 A303 RMK A01 T00211047  RH  061%=      5-min Rain = 0
KNH1 200256Z 09004KT 02/M05 A303 RMK A01 T00211047  RH  061%=      5-min Rain = 0
KNH1 200257Z 09004KT 02/M05 A303 RMK A01 T00211046  RH  061%=      5-min Rain = 0
KNH1 200258Z 09004KT 02/M05 A303 RMK A01 T00211045  RH  062%=      5-min Rain = 0
KNH1 200259Z 09004KT 02/M04 A303 RMK A01 T00211044  RH  062%=      5-min Rain = 0
KNH1 200300Z 10004KT 02/M04 A303 RMK A01 T00221044  RH  062%=      5-min Rain = 0
KNH1 200301Z 10004KT 02/M04 A303 RMK A01 T00231043  RH  062%=      5-min Rain = 0
KNH1 200302Z 11004KT 02/M04 A303 RMK A01 T00241043  RH  061%=      5-min Rain = 0
KNH1 200303Z 11004KT 03/M04 A303 RMK A01 T00251043  RH  061%=      5-min Rain = 0
KNH1 200304Z 11003KT 03/M04 A303 RMK A01 T00251043  RH  061%=      5-min Rain = 0
KNH1 200305Z 11004KT 03/M04 A303 RMK A01 T00251042  RH  061%=      5-min Rain = 0
KNH1 200306Z 11003KT 03/M04 A303 RMK A01 T00251043  RH  061%=      5-min Rain = 0
KNH1 200307Z 11004KT 03/M04 A303 RMK A01 T00251043  RH  061%=      5-min Rain = 0
KNH1 200308Z 11004KT 02/M04 A303 RMK A01 T00241044  RH  061%=      5-min Rain = 0
KNH1 200309Z 10004KT 02/M04 A303 RMK A01 T00231044  RH  061%=      5-min Rain = 0
KNH1 200310Z 11005KT 02/M04 A3029 RMK A01 T00231044  RH  061%=      5-min Rain = 0
KNH1 200311Z 10005KT 02/M05 A3029 RMK A01 T00221045  RH  061%=      5-min Rain = 0
KNH1 200312Z 11005KT 02/M05 A3029 RMK A01 T00221045  RH  061%=      5-min Rain = 0
KNH1 200313Z 11005KT 02/M04 A3029 RMK A01 T00221044  RH  062%=      5-min Rain = 0
KNH1 200314Z 11005KT 02/M04 A3029 RMK A01 T00211044  RH  062%=      5-min Rain = 0
KNH1 200315Z 10005KT 02/M04 A3029 RMK A01 T00221044  RH  062%=      5-min Rain = 0
KNH1 200316Z 11005KT 02/M04 A3029 RMK A01 T00231043  RH  062%=      5-min Rain = 0
KNH1 200317Z 11005KT 02/M04 A3029 RMK A01 T00241044  RH  061%=      5-min Rain = 0
KNH1 200318Z 11006KT 03/M05 A3028 RMK A01 T00251045  RH  060%=      5-min Rain = 0
KNH1 200319Z 12006KT 03/M05 A3028 RMK A01 T00251045  RH  060%=      5-min Rain = 0
KNH1 200320Z 12005KT 03/M05 A3028 RMK A01 T00251046  RH  060%=      5-min Rain = 0
KNH1 200321Z 12005KT 02/M05 A3028 RMK A01 T00241047  RH  059%=      5-min Rain = 0
KNH1 200322Z 12005KT 02/M05 A3028 RMK A01 T00231047  RH  060%=      5-min Rain = 0
KNH1 200323Z 12005KT 02/M05 A3029 RMK A01 T00221047  RH  060%=      5-min Rain = 0
KNH1 200324Z 12005KT 02/M05 A3028 RMK A01 T00211047  RH  060%=      5-min Rain = 0
KNH1 200325Z 12005KT 02/M05 A3029 RMK A01 T00211047  RH  061%=      5-min Rain = 0
KNH1 200326Z 12005KT 02/M05 A3029 RMK A01 T00201048  RH  061%=      5-min Rain = 0
KNH1 200327Z 11005KT 02/M05 A3029 RMK A01 T00191048  RH  061%=      5-min Rain = 0
KNH1 200328Z 10004KT 02/M05 A3029 RMK A01 T00191048  RH  061%=      5-min Rain = 0
KNH1 200329Z 11003KT 02/M05 A3029 RMK A01 T00191048  RH  061%=      5-min Rain = 0
KNH1 200330Z 10004KT 02/M05 A303 RMK A01 T00171049  RH  062%=      5-min Rain = 0
KNH1 200331Z 10003KT 02/M05 A303 RMK A01 T00151049  RH  062%=      5-min Rain = 0
KNH1 200332Z 09003KT 02/M05 A303 RMK A01 T00151049  RH  063%=      5-min Rain = 0
KNH1 200333Z 10004KT 02/M05 A303 RMK A01 T00151049  RH  063%=      5-min Rain = 0
KNH1 200334Z 10005KT 02/M05 A303 RMK A01 T00151048  RH  063%=      5-min Rain = 0
KNH1 200335Z 11005KT 02/M05 A3029 RMK A01 T00161047  RH  063%=      5-min Rain = 0
KNH1 200336Z 11005KT 02/M05 A3029 RMK A01 T00171047  RH  063%=      5-min Rain = 0
KNH1 200337Z 11006KT 02/M05 A3029 RMK A01 T00171046  RH  063%=      5-min Rain = 0
KNH1 200338Z 12006KT 02/M05 A3028 RMK A01 T00181046  RH  063%=      5-min Rain = 0
KNH1 200339Z 12007KT 02/M05 A3028 RMK A01 T00181047  RH  062%=      5-min Rain = 0
KNH1 200340Z 12006KT 02/M05 A3028 RMK A01 T00181048  RH  062%=      5-min Rain = 0
KNH1 200341Z 11006KT 02/M05 A3028 RMK A01 T00181048  RH  062%=      5-min Rain = 0
KNH1 200342Z 11005KT 02/M05 A3029 RMK A01 T00181048  RH  061%=      5-min Rain = 0
KNH1 200343Z 10004KT 02/M05 A3029 RMK A01 T00191048  RH  061%=      5-min Rain = 0
KNH1 200344Z 11004KT 02/M05 A3029 RMK A01 T00191048  RH  061%=      5-min Rain = 0
KNH1 200345Z 11005KT 02/M05 A3029 RMK A01 T00171049  RH  062%=      5-min Rain = 0
KNH1 200346Z 11005KT 01/M05 A3029 RMK A01 T00141050  RH  062%=      5-min Rain = 0
KNH1 200347Z 11006KT 01/M05 A3028 RMK A01 T00131049  RH  063%=      5-min Rain = 0
KNH1 200348Z 11006KT 02/M05 A3028 RMK A01 T00151047  RH  063%=      5-min Rain = 0
KNH1 200349Z 11006KT 02/M05 A3028 RMK A01 T00161047  RH  063%=      5-min Rain = 0
KNH1 200350Z 11005KT 02/M05 A3028 RMK A01 T00171046  RH  063%=      5-min Rain = 0
KNH1 200351Z 11005KT 02/M05 A3028 RMK A01 T00171047  RH  063%=      5-min Rain = 0
KNH1 200352Z 11006KT 02/M05 A3028 RMK A01 T00171047  RH  062%=      5-min Rain = 0
KNH1 200353Z 11006KT 02/M05 A3028 RMK A01 T00181047  RH  062%=      5-min Rain = 0
KNH1 200354Z 12007KT 02/M05 A3028 RMK A01 T00171047  RH  062%=      5-min Rain = 0
KNH1 200355Z 12007KT 02/M05 A3028 RMK A01 T00171048  RH  062%=      5-min Rain = 0
KNH1 200356Z 12007KT 02/M05 A3028 RMK A01 T00171049  RH  062%=      5-min Rain = 0
KNH1 200357Z 12007KT 02/M05 A3028 RMK A01 T00161050  RH  062%=      5-min Rain = 0
KNH1 200358Z 12007KT 02/M05 A3028 RMK A01 T00151051  RH  062%=      5-min Rain = 0
KNH1 200359Z 12007KT 01/M05 A3028 RMK A01 T00141051  RH  062%=      5-min Rain = 0
KNH1 200400Z 12007KT 01/M05 A3028 RMK A01 T00131051  RH  062%=      5-min Rain = 0
KNH1 200401Z 11006KT 01/M05 A3028 RMK A01 T00131050  RH  063%=      5-min Rain = 0
KNH1 200402Z 11005KT 01/M05 A3028 RMK A01 T00131050  RH  063%=      5-min Rain = 0
KNH1 200403Z 11006KT 01/M05 A3028 RMK A01 T00131050  RH  063%=      5-min Rain = 0
KNH1 200404Z 11005KT 01/M05 A3028 RMK A01 T00131050  RH  063%=      5-min Rain = 0
KNH1 200405Z 11005KT 01/M05 A3028 RMK A01 T00121050  RH  063%=      5-min Rain = 0
KNH1 200406Z 11005KT 01/M05 A3028 RMK A01 T00121051  RH  063%=      5-min Rain = 0
KNH1 200407Z 11005KT 01/M05 A3028 RMK A01 T00111050  RH  063%=      5-min Rain = 0
KNH1 200408Z 11005KT 01/M05 A3028 RMK A01 T00111050  RH  064%=      5-min Rain = 0
KNH1 200409Z 11005KT 01/M05 A3028 RMK A01 T00101050  RH  064%=      5-min Rain = 0
KNH1 200410Z 11005KT 01/M05 A3028 RMK A01 T00101051  RH  064%=      5-min Rain = 0
KNH1 200411Z 12005KT 01/M05 A3028 RMK A01 T00091051  RH  064%=      5-min Rain = 0
KNH1 200412Z 11006KT 01/M05 A3028 RMK A01 T00091051  RH  064%=      5-min Rain = 0
KNH1 200413Z 12006KT 01/M05 A3028 RMK A01 T00091050  RH  064%=      5-min Rain = 0
KNH1 200414Z 12006KT 01/M05 A3028 RMK A01 T00091051  RH  064%=      5-min Rain = 0
KNH1 200415Z 12006KT 01/M05 A3028 RMK A01 T00091052  RH  064%=      5-min Rain = 0
KNH1 200416Z 11006KT 01/M05 A3028 RMK A01 T00101052  RH  064%=      5-min Rain = 0
KNH1 200417Z 11005KT 01/M05 A3028 RMK A01 T00101052  RH  063%=      5-min Rain = 0
KNH1 200418Z 11004KT 01/M05 A3028 RMK A01 T00101052  RH  063%=      5-min Rain = 0
KNH1 200419Z 11005KT 01/M05 A3028 RMK A01 T00101051  RH  064%=      5-min Rain = 0
KNH1 200420Z 11005KT 01/M05 A3028 RMK A01 T00081052  RH  064%=      5-min Rain = 0
KNH1 200421Z 12005KT 01/M05 A3028 RMK A01 T00081051  RH  065%=      5-min Rain = 0
KNH1 200422Z 12005KT 01/M05 A3028 RMK A01 T00081051  RH  065%=      5-min Rain = 0
KNH1 200423Z 13005KT 01/M05 A3028 RMK A01 T00071051  RH  065%=      5-min Rain = 0
KNH1 200424Z 13004KT 01/M05 A3028 RMK A01 T00071051  RH  065%=      5-min Rain = 0
KNH1 200425Z 13004KT 01/M05 A3028 RMK A01 T00071051  RH  065%=      5-min Rain = 0
KNH1 200426Z 13005KT 01/M05 A3028 RMK A01 T00071051  RH  065%=      5-min Rain = 0
KNH1 200427Z 13005KT 01/M05 A3028 RMK A01 T00071051  RH  065%=      5-min Rain = 0
KNH1 200428Z 14004KT 01/M05 A3028 RMK A01 T00061052  RH  065%=      5-min Rain = 0
KNH1 200429Z 13004KT 01/M05 A3028 RMK A01 T00061052  RH  065%=      5-min Rain = 0
KNH1 200430Z 13005KT 01/M05 A3029 RMK A01 T00061052  RH  065%=      5-min Rain = 0
KNH1 200431Z 12005KT 01/M05 A3029 RMK A01 T00051052  RH  065%=      5-min Rain = 0
KNH1 200432Z 12005KT 01/M05 A3029 RMK A01 T00051053  RH  065%=      5-min Rain = 0
KNH1 200433Z 11005KT 01/M05 A3029 RMK A01 T00051052  RH  065%=      5-min Rain = 0
KNH1 200434Z 11004KT 00/M05 A3029 RMK A01 T00041052  RH  066%=      5-min Rain = 0
KNH1 200435Z 11004KT 00/M05 A3029 RMK A01 T00031053  RH  066%=      5-min Rain = 0
KNH1 200436Z 11004KT 00/M05 A3029 RMK A01 T00021053  RH  066%=      5-min Rain = 0
KNH1 200437Z 11005KT 00/M05 A3028 RMK A01 T00011053  RH  067%=      5-min Rain = 0
KNH1 200438Z 12005KT 00/05 A3028 RMK A01 T00000-53  RH  067%=      5-min Rain = 0
KNH1 200439Z 12005KT 00/05 A3028 RMK A01 T00000-53  RH  068%=      5-min Rain = 0
KNH1 200440Z 12005KT 00/M05 A3028 RMK A01 T00011051  RH  068%=      5-min Rain = 0
KNH1 200441Z 12005KT 00/M05 A3028 RMK A01 T00021051  RH  068%=      5-min Rain = 0
KNH1 200442Z 12005KT 00/M05 A3028 RMK A01 T00031051  RH  067%=      5-min Rain = 0
KNH1 200443Z 12004KT 00/M05 A3029 RMK A01 T00041051  RH  067%=      5-min Rain = 0
KNH1 200444Z 13004KT 01/M05 A3029 RMK A01 T00051051  RH  066%=      5-min Rain = 0
KNH1 200445Z 13005KT 00/M05 A3029 RMK A01 T00041052  RH  066%=      5-min Rain = 0
KNH1 200446Z 13005KT 01/M05 A3029 RMK A01 T00051052  RH  066%=      5-min Rain = 0
KNH1 200447Z 13005KT 00/M05 A3029 RMK A01 T00041052  RH  066%=      5-min Rain = 0
KNH1 200448Z 12005KT 00/M05 A3029 RMK A01 T00041052  RH  066%=      5-min Rain = 0
KNH1 200449Z 13004KT 00/M05 A3029 RMK A01 T00041053  RH  066%=      5-min Rain = 0
KNH1 200450Z 13005KT 00/M05 A3029 RMK A01 T00031053  RH  066%=      5-min Rain = 0
KNH1 200451Z 13004KT 00/M05 A3029 RMK A01 T00031053  RH  066%=      5-min Rain = 0
KNH1 200452Z 13005KT 00/M05 A3028 RMK A01 T00031053  RH  066%=      5-min Rain = 0
KNH1 200453Z 13005KT 00/M05 A3028 RMK A01 T00021054  RH  066%=      5-min Rain = 0
KNH1 200454Z 12005KT 00/M05 A3029 RMK A01 T00021054  RH  066%=      5-min Rain = 0
KNH1 200455Z 12005KT 00/M05 A3029 RMK A01 T00021053  RH  066%=      5-min Rain = 0
KNH1 200456Z 12005KT 00/M05 A3029 RMK A01 T00021053  RH  066%=      5-min Rain = 0
KNH1 200457Z 12005KT 00/M05 A3029 RMK A01 T00031053  RH  066%=      5-min Rain = 0
KNH1 200458Z 12006KT 00/M05 A3029 RMK A01 T00031053  RH  066%=      5-min Rain = 0
KNH1 200459Z 12006KT 00/M05 A3029 RMK A01 T00031052  RH  066%=      5-min Rain = 0
KNH1 200500Z 12006KT 00/M05 A3029 RMK A01 T00041052  RH  066%=      5-min Rain = 0
KNH1 200501Z 12006KT 00/M05 A3029 RMK A01 T00041052  RH  066%=      5-min Rain = 0
KNH1 200502Z 12006KT 00/M05 A3029 RMK A01 T00041052  RH  066%=      5-min Rain = 0
KNH1 200503Z 12006KT 00/M05 A3029 RMK A01 T00041051  RH  066%=      5-min Rain = 0
KNH1 200504Z 12006KT 01/M05 A303 RMK A01 T00051051  RH  066%=      5-min Rain = 0
KNH1 200505Z 12005KT 01/M05 A303 RMK A01 T00051051  RH  066%=      5-min Rain = 0
KNH1 200506Z 13005KT 01/M05 A303 RMK A01 T00051051  RH  066%=      5-min Rain = 0
KNH1 200507Z 13005KT 01/M05 A303 RMK A01 T00051051  RH  066%=      5-min Rain = 0
KNH1 200508Z 12005KT 01/M05 A303 RMK A01 T00051051  RH  066%=      5-min Rain = 0
KNH1 200509Z 12005KT 01/M05 A303 RMK A01 T00051050  RH  066%=      5-min Rain = 0
KNH1 200510Z 12005KT 01/M05 A303 RMK A01 T00051051  RH  066%=      5-min Rain = 0
KNH1 200511Z 12006KT 01/M05 A3029 RMK A01 T00051051  RH  066%=      5-min Rain = 0
KNH1 200512Z 12006KT 01/M05 A3029 RMK A01 T00061050  RH  066%=      5-min Rain = 0
KNH1 200513Z 13005KT 01/M05 A303 RMK A01 T00061050  RH  066%=      5-min Rain = 0
KNH1 200514Z 13005KT 01/M05 A3029 RMK A01 T00061050  RH  066%=      5-min Rain = 0
KNH1 200515Z 13005KT 01/M05 A3029 RMK A01 T00061050  RH  066%=      5-min Rain = 0
KNH1 200516Z 13005KT 01/M05 A3029 RMK A01 T00061049  RH  067%=      5-min Rain = 0
KNH1 200517Z 13005KT 01/M05 A3029 RMK A01 T00061049  RH  067%=      5-min Rain = 0
KNH1 200518Z 13005KT 01/M05 A3029 RMK A01 T00061049  RH  067%=      5-min Rain = 0
KNH1 200519Z 14005KT 01/M05 A3029 RMK A01 T00061049  RH  067%=      5-min Rain = 0
KNH1 200520Z 14006KT 01/M05 A3029 RMK A01 T00061049  RH  067%=      5-min Rain = 0
KNH1 200521Z 12006KT 01/M05 A303 RMK A01 T00061049  RH  067%=      5-min Rain = 0
KNH1 200522Z 13007KT 01/M05 A303 RMK A01 T00061049  RH  067%=      5-min Rain = 0
KNH1 200523Z 13006KT 01/M05 A303 RMK A01 T00071048  RH  066%=      5-min Rain = 0
KNH1 200524Z 12006KT 01/M05 A303 RMK A01 T00071048  RH  066%=      5-min Rain = 0
KNH1 200525Z 12007KT 01/M05 A303 RMK A01 T00081048  RH  066%=      5-min Rain = 0
KNH1 200526Z 13006KT 01/M05 A303 RMK A01 T00081047  RH  066%=      5-min Rain = 0
KNH1 200527Z 13006KT 01/M05 A303 RMK A01 T00091047  RH  066%=      5-min Rain = 0
KNH1 200528Z 13006KT 01/M05 A303 RMK A01 T00091047  RH  066%=      5-min Rain = 0
KNH1 200529Z 12006KT 01/M05 A303 RMK A01 T00091047  RH  066%=      5-min Rain = 0
KNH1 200530Z 13006KT 01/M05 A3029 RMK A01 T00091047  RH  066%=      5-min Rain = 0
KNH1 200531Z 13006KT 01/M05 A3029 RMK A01 T00091046  RH  066%=      5-min Rain = 0
KNH1 200532Z 13006KT 01/M05 A3029 RMK A01 T00101046  RH  066%=      5-min Rain = 0
KNH1 200533Z 13006KT 01/M05 A3029 RMK A01 T00091047  RH  066%=      5-min Rain = 0
KNH1 200534Z 13006KT 01/M05 A303 RMK A01 T00101046  RH  066%=      5-min Rain = 0
KNH1 200535Z 13006KT 01/M05 A303 RMK A01 T00101046  RH  066%=      5-min Rain = 0
KNH1 200536Z 13006KT 01/M05 A303 RMK A01 T00101046  RH  066%=      5-min Rain = 0
KNH1 200537Z 13007KT 01/M05 A303 RMK A01 T00101046  RH  066%=      5-min Rain = 0
KNH1 200538Z 13006KT 01/M05 A303 RMK A01 T00101046  RH  066%=      5-min Rain = 0
KNH1 200539Z 13006KT 01/M05 A303 RMK A01 T00091047  RH  066%=      5-min Rain = 0
KNH1 200540Z 13006KT 01/M05 A303 RMK A01 T00091047  RH  066%=      5-min Rain = 0
KNH1 200541Z 13006KT 01/M05 A303 RMK A01 T00091047  RH  066%=      5-min Rain = 0
KNH1 200542Z 14006KT 01/M05 A303 RMK A01 T00091046  RH  067%=      5-min Rain = 0
KNH1 200543Z 13006KT 01/M05 A303 RMK A01 T00091046  RH  067%=      5-min Rain = 0
KNH1 200544Z 14007KT 01/M05 A303 RMK A01 T00091046  RH  067%=      5-min Rain = 0
KNH1 200545Z 13007KT 01/M05 A303 RMK A01 T00091046  RH  067%=      5-min Rain = 0
KNH1 200546Z 13006KT 01/M05 A303 RMK A01 T00091046  RH  067%=      5-min Rain = 0
KNH1 200547Z 13007KT 01/M05 A303 RMK A01 T00101045  RH  067%=      5-min Rain = 0
KNH1 200548Z 13006KT 01/M05 A303 RMK A01 T00101045  RH  067%=      5-min Rain = 0
KNH1 200549Z 13007KT 01/M05 A303 RMK A01 T00101045  RH  067%=      5-min Rain = 0
KNH1 200550Z 12006KT 01/M04 A303 RMK A01 T00101044  RH  067%=      5-min Rain = 0
KNH1 200551Z 12007KT 01/M04 A303 RMK A01 T00101044  RH  067%=      5-min Rain = 0
KNH1 200552Z 13008KT 01/M04 A303 RMK A01 T00101044  RH  067%=      5-min Rain = 0
KNH1 200553Z 14007KT 01/M04 A303 RMK A01 T00101044  RH  067%=      5-min Rain = 0
KNH1 200554Z 13008KT 01/M04 A303 RMK A01 T00101044  RH  067%=      5-min Rain = 0
KNH1 200555Z 13007KT 01/M04 A303 RMK A01 T00101044  RH  067%=      5-min Rain = 0
KNH1 200556Z 13008KT 01/M04 A303 RMK A01 T00101044  RH  067%=      5-min Rain = 0
KNH1 200557Z 13008KT 01/M04 A303 RMK A01 T00111044  RH  067%=      5-min Rain = 0
KNH1 200558Z 13008KT 01/M04 A303 RMK A01 T00111044  RH  067%=      5-min Rain = 0
KNH1 200559Z 14007KT 01/M04 A303 RMK A01 T00121044  RH  066%=      5-min Rain = 0

Page generated in 0.1271 seconds.